OCN132W EDDF-FYWH
Flight info
| Callsign | OCN132W |
|---|---|
| Flight time | 9h 35m |
| Altitude | 35000 |
| Route | ANEKI3F ANEKI Y163 NATOR DCT TRA DCT RIPUS DCT GERSA DCT SOSON DCT ODINA DCT SPEZI DCT BEGUD DCT ROMPO DCT PIRIX DCT OSMAR UM733 TANIT UA725 TUC/N0478F340 UW411 EBA/N0477F370 UG362 SAMRA/N0478F360 UG362 BARKA/N0476F350 UM2 DJA UB730 DIR UA607 FL UA403 BZ DCT KSA UT943 IMVEX/N0475F340 UT943 UNLOK/N0474F330 UT943 VEDRY DCT |
| Aircraft | A333/H-SDE3GHIJ2J3J5M1RVWXY/LB2D1 |
Departure
| Time | 2026-04-12 20:24 |
|---|---|
| Airport | Frankfurt Main Airport (EDDF) |
Arrival
| Time | 2026-04-13 05:59 |
|---|---|
| Airport | Hosea Kutako International Airport (FYWH) |
| Time | Latitude | Longitude | Altitude | Speed | Heading |
|---|---|---|---|---|---|
| 2026-04-12 20:03 | 50.04933 | 8.58181 | 363 ft | 0 kts | 340° |
| 2026-04-12 20:10 | 50.04930 | 8.58183 | 366 ft | 3 kts | 340° |
| 2026-04-12 20:11 | 50.04905 | 8.58197 | 367 ft | 4 kts | 339° |
| 2026-04-12 20:11 | 50.04880 | 8.58212 | 368 ft | 3 kts | 339° |
| 2026-04-12 20:11 | 50.04859 | 8.58229 | 367 ft | 4 kts | 303° |
| 2026-04-12 20:11 | 50.04854 | 8.58265 | 364 ft | 4 kts | 258° |
| 2026-04-12 20:12 | 50.04862 | 8.58305 | 368 ft | 4 kts | 247° |
| 2026-04-12 20:12 | 50.04868 | 8.58325 | 369 ft | 1 kts | 250° |
| 2026-04-12 20:14 | 50.04867 | 8.58325 | 370 ft | 0 kts | 250° |
| 2026-04-12 20:14 | 50.04866 | 8.58317 | 370 ft | 2 kts | 250° |
| 2026-04-12 20:14 | 50.04858 | 8.58287 | 363 ft | 4 kts | 250° |
| 2026-04-12 20:15 | 50.04847 | 8.58237 | 364 ft | 6 kts | 250° |
| 2026-04-12 20:15 | 50.04830 | 8.58169 | 369 ft | 8 kts | 249° |
| 2026-04-12 20:15 | 50.04807 | 8.58075 | 365 ft | 11 kts | 248° |
| 2026-04-12 20:15 | 50.04761 | 8.57970 | 370 ft | 13 kts | 226° |
| 2026-04-12 20:16 | 50.04702 | 8.57862 | 366 ft | 14 kts | 241° |
| 2026-04-12 20:16 | 50.04664 | 8.57720 | 369 ft | 15 kts | 250° |
| 2026-04-12 20:16 | 50.04627 | 8.57567 | 364 ft | 16 kts | 250° |
| 2026-04-12 20:16 | 50.04588 | 8.57403 | 365 ft | 17 kts | 250° |
| 2026-04-12 20:17 | 50.04547 | 8.57230 | 369 ft | 17 kts | 250° |
| 2026-04-12 20:17 | 50.04505 | 8.57051 | 369 ft | 18 kts | 250° |
| 2026-04-12 20:17 | 50.04463 | 8.56872 | 367 ft | 17 kts | 250° |
| 2026-04-12 20:17 | 50.04420 | 8.56692 | 362 ft | 19 kts | 250° |
| 2026-04-12 20:18 | 50.04374 | 8.56497 | 367 ft | 20 kts | 250° |
| 2026-04-12 20:18 | 50.04325 | 8.56293 | 365 ft | 21 kts | 250° |
| 2026-04-12 20:18 | 50.04273 | 8.56081 | 362 ft | 21 kts | 248° |
| 2026-04-12 20:18 | 50.04221 | 8.55862 | 364 ft | 22 kts | 250° |
| 2026-04-12 20:19 | 50.04167 | 8.55635 | 365 ft | 23 kts | 248° |
| 2026-04-12 20:19 | 50.04111 | 8.55405 | 364 ft | 23 kts | 250° |
| 2026-04-12 20:19 | 50.04058 | 8.55181 | 362 ft | 22 kts | 250° |
| 2026-04-12 20:19 | 50.04005 | 8.54960 | 364 ft | 22 kts | 250° |
| 2026-04-12 20:20 | 50.03949 | 8.54730 | 361 ft | 23 kts | 249° |
| 2026-04-12 20:20 | 50.03892 | 8.54492 | 360 ft | 24 kts | 249° |
| 2026-04-12 20:20 | 50.03812 | 8.54259 | 359 ft | 25 kts | 243° |
| 2026-04-12 20:20 | 50.03749 | 8.54013 | 357 ft | 25 kts | 250° |
| 2026-04-12 20:21 | 50.03690 | 8.53762 | 357 ft | 25 kts | 249° |
| 2026-04-12 20:21 | 50.03627 | 8.53512 | 351 ft | 25 kts | 247° |
| 2026-04-12 20:21 | 50.03566 | 8.53259 | 352 ft | 25 kts | 250° |
| 2026-04-12 20:21 | 50.03506 | 8.53004 | 351 ft | 25 kts | 249° |
| 2026-04-12 20:22 | 50.03443 | 8.52755 | 334 ft | 23 kts | 248° |
| 2026-04-12 20:22 | 50.03370 | 8.52606 | 335 ft | 16 kts | 203° |
| 2026-04-12 20:22 | 50.03321 | 8.52595 | 335 ft | 1 kts | 180° |
| 2026-04-12 20:22 | 50.03320 | 8.52595 | 335 ft | 0 kts | 180° |
| 2026-04-12 20:23 | 50.03268 | 8.52593 | 334 ft | 27 kts | 181° |
| 2026-04-12 20:23 | 50.02875 | 8.52595 | 335 ft | 85 kts | 179° |
| 2026-04-12 20:23 | 50.02101 | 8.52604 | 334 ft | 137 kts | 180° |
| 2026-04-12 20:24 | 50.00990 | 8.52613 | 376 ft | 179 kts | 180° |
| 2026-04-12 20:24 | 49.99748 | 8.52657 | 1067 ft | 177 kts | 179° |
| 2026-04-12 20:24 | 49.98520 | 8.52699 | 1860 ft | 176 kts | 176° |
| 2026-04-12 20:24 | 49.97314 | 8.52785 | 2602 ft | 168 kts | 174° |
| 2026-04-12 20:25 | 49.96147 | 8.52876 | 3008 ft | 168 kts | 175° |
| 2026-04-12 20:25 | 49.94986 | 8.52964 | 3398 ft | 167 kts | 175° |
| 2026-04-12 20:25 | 49.93813 | 8.53037 | 3724 ft | 172 kts | 176° |
| 2026-04-12 20:25 | 49.92593 | 8.53065 | 4022 ft | 179 kts | 178° |
| 2026-04-12 20:26 | 49.91323 | 8.53034 | 4341 ft | 186 kts | 180° |
| 2026-04-12 20:26 | 49.90010 | 8.52933 | 4703 ft | 192 kts | 181° |
| 2026-04-12 20:26 | 49.88656 | 8.52920 | 5084 ft | 197 kts | 176° |
| 2026-04-12 20:26 | 49.87270 | 8.53056 | 5474 ft | 202 kts | 174° |
| 2026-04-12 20:27 | 49.85852 | 8.53250 | 5839 ft | 208 kts | 174° |
| 2026-04-12 20:27 | 49.84365 | 8.53477 | 6077 ft | 222 kts | 173° |
| 2026-04-12 20:27 | 49.82783 | 8.53694 | 6313 ft | 233 kts | 175° |
| 2026-04-12 20:27 | 49.81156 | 8.53870 | 6695 ft | 236 kts | 176° |
| 2026-04-12 20:28 | 49.79509 | 8.54017 | 7119 ft | 237 kts | 176° |
| 2026-04-12 20:28 | 49.77876 | 8.54060 | 7497 ft | 241 kts | 182° |
| 2026-04-12 20:28 | 49.76131 | 8.53893 | 7652 ft | 256 kts | 184° |
| 2026-04-12 20:28 | 49.74307 | 8.53655 | 7886 ft | 268 kts | 185° |
| 2026-04-12 20:29 | 49.72457 | 8.53404 | 8324 ft | 272 kts | 185° |
| 2026-04-12 20:29 | 49.70562 | 8.53149 | 8850 ft | 274 kts | 185° |
| 2026-04-12 20:29 | 49.68660 | 8.52894 | 9382 ft | 275 kts | 185° |
| 2026-04-12 20:29 | 49.66750 | 8.52640 | 9896 ft | 276 kts | 185° |
| 2026-04-12 20:30 | 49.64834 | 8.52386 | 10401 ft | 276 kts | 186° |
| 2026-04-12 20:30 | 49.62929 | 8.52135 | 10970 ft | 274 kts | 186° |
| 2026-04-12 20:30 | 49.61032 | 8.51885 | 11454 ft | 274 kts | 187° |
| 2026-04-12 20:30 | 49.59131 | 8.51633 | 11933 ft | 275 kts | 187° |
| 2026-04-12 20:31 | 49.57223 | 8.51382 | 12416 ft | 275 kts | 187° |
| 2026-04-12 20:31 | 49.55310 | 8.51125 | 12894 ft | 276 kts | 188° |
| 2026-04-12 20:31 | 49.53396 | 8.50857 | 13376 ft | 276 kts | 188° |
| 2026-04-12 20:31 | 49.51479 | 8.50585 | 13857 ft | 277 kts | 189° |
| 2026-04-12 20:32 | 49.49561 | 8.50311 | 14272 ft | 278 kts | 189° |
| 2026-04-12 20:32 | 49.47624 | 8.50034 | 14640 ft | 280 kts | 189° |
| 2026-04-12 20:32 | 49.45678 | 8.49757 | 15030 ft | 282 kts | 189° |
| 2026-04-12 20:32 | 49.43717 | 8.49479 | 15417 ft | 283 kts | 189° |
| 2026-04-12 20:33 | 49.41740 | 8.49199 | 15693 ft | 290 kts | 188° |
| 2026-04-12 20:33 | 49.39694 | 8.48909 | 15846 ft | 300 kts | 188° |
| 2026-04-12 20:33 | 49.37585 | 8.48610 | 16000 ft | 309 kts | 188° |
| 2026-04-12 20:33 | 49.35411 | 8.48303 | 16159 ft | 318 kts | 188° |
| 2026-04-12 20:34 | 49.33182 | 8.47992 | 16422 ft | 324 kts | 188° |
| 2026-04-12 20:34 | 49.30926 | 8.47678 | 16768 ft | 327 kts | 188° |
| 2026-04-12 20:34 | 49.28657 | 8.47364 | 17132 ft | 329 kts | 187° |
| 2026-04-12 20:34 | 49.26375 | 8.47049 | 17509 ft | 330 kts | 188° |
| 2026-04-12 20:35 | 49.24081 | 8.46730 | 17884 ft | 332 kts | 188° |
| 2026-04-12 20:35 | 49.21773 | 8.46410 | 18254 ft | 334 kts | 188° |
| 2026-04-12 20:35 | 49.19443 | 8.46085 | 18439 ft | 341 kts | 187° |
| 2026-04-12 20:35 | 49.17059 | 8.45753 | 18634 ft | 346 kts | 187° |
| 2026-04-12 20:36 | 49.14660 | 8.45419 | 18968 ft | 347 kts | 187° |
| 2026-04-12 20:36 | 49.12256 | 8.45087 | 19300 ft | 347 kts | 187° |
| 2026-04-12 20:36 | 49.09845 | 8.44753 | 19606 ft | 349 kts | 187° |
| 2026-04-12 20:36 | 49.07406 | 8.44415 | 19772 ft | 355 kts | 187° |
| 2026-04-12 20:37 | 49.04921 | 8.44070 | 19899 ft | 362 kts | 187° |
| 2026-04-12 20:37 | 49.02389 | 8.43719 | 20005 ft | 369 kts | 187° |
| 2026-04-12 20:37 | 48.99813 | 8.43362 | 20118 ft | 375 kts | 187° |
| 2026-04-12 20:37 | 48.97188 | 8.43000 | 20213 ft | 382 kts | 187° |
| 2026-04-12 20:38 | 48.94558 | 8.42637 | 20311 ft | 388 kts | 187° |
| 2026-04-12 20:38 | 48.91855 | 8.42265 | 20412 ft | 393 kts | 187° |
| 2026-04-12 20:38 | 48.89107 | 8.41888 | 20514 ft | 399 kts | 187° |
| 2026-04-12 20:38 | 48.86333 | 8.41510 | 20654 ft | 402 kts | 186° |
| 2026-04-12 20:39 | 48.83525 | 8.41356 | 20862 ft | 405 kts | 182° |
| 2026-04-12 20:39 | 48.80705 | 8.41320 | 21055 ft | 407 kts | 182° |
| 2026-04-12 20:39 | 48.77867 | 8.41333 | 21304 ft | 408 kts | 181° |
| 2026-04-12 20:39 | 48.75022 | 8.41377 | 21438 ft | 411 kts | 181° |
| 2026-04-12 20:40 | 48.72158 | 8.41441 | 21657 ft | 413 kts | 180° |
| 2026-04-12 20:40 | 48.69284 | 8.41512 | 21883 ft | 414 kts | 180° |
| 2026-04-12 20:40 | 48.66402 | 8.41584 | 22106 ft | 415 kts | 180° |
| 2026-04-12 20:40 | 48.63511 | 8.41655 | 22336 ft | 416 kts | 181° |
| 2026-04-12 20:41 | 48.60615 | 8.41722 | 22555 ft | 417 kts | 181° |
| 2026-04-12 20:41 | 48.57705 | 8.41788 | 22787 ft | 418 kts | 181° |
| 2026-04-12 20:41 | 48.54792 | 8.41852 | 23034 ft | 420 kts | 181° |
| 2026-04-12 20:41 | 48.51868 | 8.41916 | 23246 ft | 421 kts | 181° |
| 2026-04-12 20:42 | 48.48934 | 8.41980 | 23474 ft | 422 kts | 181° |
| 2026-04-12 20:42 | 48.45993 | 8.42043 | 23679 ft | 424 kts | 181° |
| 2026-04-12 20:42 | 48.43041 | 8.42107 | 23876 ft | 424 kts | 181° |
| 2026-04-12 20:42 | 48.40086 | 8.42171 | 24078 ft | 425 kts | 181° |
| 2026-04-12 20:43 | 48.37123 | 8.42236 | 24273 ft | 426 kts | 181° |
| 2026-04-12 20:43 | 48.34161 | 8.42302 | 24470 ft | 427 kts | 181° |
| 2026-04-12 20:43 | 48.31184 | 8.42367 | 24609 ft | 429 kts | 181° |
| 2026-04-12 20:43 | 48.28194 | 8.42431 | 24812 ft | 430 kts | 181° |
| 2026-04-12 20:44 | 48.25203 | 8.42495 | 25023 ft | 430 kts | 181° |
| 2026-04-12 20:44 | 48.22209 | 8.42559 | 25231 ft | 431 kts | 181° |
| 2026-04-12 20:44 | 48.19208 | 8.42623 | 25439 ft | 431 kts | 181° |
| 2026-04-12 20:44 | 48.16206 | 8.42688 | 25621 ft | 432 kts | 181° |
| 2026-04-12 20:45 | 48.13196 | 8.42752 | 25844 ft | 433 kts | 181° |
| 2026-04-12 20:45 | 48.10186 | 8.42817 | 26044 ft | 433 kts | 181° |
| 2026-04-12 20:45 | 48.07170 | 8.42882 | 26235 ft | 434 kts | 181° |
| 2026-04-12 20:45 | 48.04186 | 8.42946 | 26433 ft | 435 kts | 181° |
| 2026-04-12 20:46 | 48.01161 | 8.43011 | 26632 ft | 435 kts | 181° |
| 2026-04-12 20:46 | 47.98129 | 8.43076 | 26823 ft | 436 kts | 181° |
| 2026-04-12 20:46 | 47.95089 | 8.43141 | 27014 ft | 437 kts | 181° |
| 2026-04-12 20:46 | 47.92046 | 8.43206 | 27214 ft | 438 kts | 181° |
| 2026-04-12 20:47 | 47.89003 | 8.43271 | 27417 ft | 438 kts | 180° |
| 2026-04-12 20:47 | 47.85952 | 8.43336 | 27622 ft | 438 kts | 180° |
| 2026-04-12 20:47 | 47.82899 | 8.43401 | 27802 ft | 439 kts | 181° |
| 2026-04-12 20:47 | 47.79844 | 8.43466 | 28001 ft | 440 kts | 181° |
| 2026-04-12 20:48 | 47.76778 | 8.43530 | 28197 ft | 441 kts | 181° |
| 2026-04-12 20:48 | 47.73704 | 8.43594 | 28320 ft | 443 kts | 181° |
| 2026-04-12 20:48 | 47.70622 | 8.43659 | 28463 ft | 444 kts | 181° |
| 2026-04-12 20:48 | 47.67531 | 8.43820 | 28646 ft | 445 kts | 178° |
| 2026-04-12 20:49 | 47.64436 | 8.44180 | 28830 ft | 447 kts | 176° |
| 2026-04-12 20:49 | 47.61343 | 8.44646 | 29022 ft | 447 kts | 175° |
| 2026-04-12 20:49 | 47.58246 | 8.45151 | 29203 ft | 448 kts | 175° |
| 2026-04-12 20:49 | 47.55151 | 8.45660 | 29483 ft | 447 kts | 175° |
| 2026-04-12 20:50 | 47.52071 | 8.46154 | 29812 ft | 444 kts | 176° |
| 2026-04-12 20:50 | 47.49001 | 8.46631 | 30107 ft | 442 kts | 176° |
| 2026-04-12 20:50 | 47.45938 | 8.47093 | 30289 ft | 442 kts | 176° |
| 2026-04-12 20:50 | 47.42878 | 8.47545 | 30488 ft | 442 kts | 176° |
| 2026-04-12 20:51 | 47.39821 | 8.47992 | 30706 ft | 441 kts | 176° |
| 2026-04-12 20:51 | 47.36770 | 8.48436 | 30944 ft | 440 kts | 176° |
| 2026-04-12 20:51 | 47.33730 | 8.48879 | 31183 ft | 439 kts | 176° |
| 2026-04-12 20:51 | 47.30693 | 8.49320 | 31443 ft | 438 kts | 176° |
| 2026-04-12 20:52 | 47.27662 | 8.49761 | 31714 ft | 437 kts | 176° |
| 2026-04-12 20:52 | 47.24642 | 8.50201 | 31999 ft | 436 kts | 176° |
| 2026-04-12 20:52 | 47.21634 | 8.50639 | 32333 ft | 434 kts | 176° |
| 2026-04-12 20:52 | 47.18637 | 8.51076 | 32651 ft | 432 kts | 176° |
| 2026-04-12 20:53 | 47.15649 | 8.51511 | 32979 ft | 430 kts | 176° |
| 2026-04-12 20:53 | 47.12676 | 8.51942 | 33294 ft | 429 kts | 176° |
| 2026-04-12 20:53 | 47.09715 | 8.52372 | 33631 ft | 427 kts | 177° |
| 2026-04-12 20:53 | 47.06763 | 8.52800 | 33962 ft | 425 kts | 177° |
| 2026-04-12 20:54 | 47.03826 | 8.53224 | 34223 ft | 424 kts | 176° |
| 2026-04-12 20:54 | 47.00895 | 8.53647 | 34414 ft | 423 kts | 176° |
| 2026-04-12 20:54 | 46.97968 | 8.54069 | 34669 ft | 422 kts | 176° |
| 2026-04-12 20:54 | 46.95085 | 8.54484 | 34836 ft | 422 kts | 176° |
| 2026-04-12 20:55 | 46.92128 | 8.54910 | 35052 ft | 421 kts | 176° |
| 2026-04-12 20:55 | 46.89254 | 8.55324 | 35308 ft | 419 kts | 176° |
| 2026-04-12 20:55 | 46.86356 | 8.55741 | 35555 ft | 418 kts | 176° |
| 2026-04-12 20:55 | 46.83464 | 8.56156 | 35730 ft | 418 kts | 176° |
| 2026-04-12 20:56 | 46.80575 | 8.56570 | 35973 ft | 417 kts | 176° |
| 2026-04-12 20:56 | 46.77686 | 8.56982 | 36178 ft | 417 kts | 176° |
| 2026-04-12 20:56 | 46.74800 | 8.57394 | 36392 ft | 417 kts | 176° |
| 2026-04-12 20:56 | 46.71923 | 8.57807 | 36727 ft | 415 kts | 176° |
| 2026-04-12 20:57 | 46.69058 | 8.58216 | 36920 ft | 414 kts | 176° |
| 2026-04-12 20:57 | 46.63316 | 8.59033 | 36916 ft | 414 kts | 176° |
| 2026-04-12 20:58 | 46.57572 | 8.59853 | 36937 ft | 415 kts | 176° |
| 2026-04-12 20:58 | 46.51816 | 8.60669 | 36931 ft | 416 kts | 176° |
| 2026-04-12 20:59 | 46.46056 | 8.61486 | 36947 ft | 416 kts | 176° |
| 2026-04-12 20:59 | 46.40292 | 8.62302 | 36962 ft | 417 kts | 176° |
| 2026-04-12 21:00 | 46.34520 | 8.63114 | 36952 ft | 416 kts | 176° |
| 2026-04-12 21:00 | 46.28759 | 8.63925 | 36962 ft | 416 kts | 176° |
| 2026-04-12 21:01 | 46.22996 | 8.64734 | 36957 ft | 416 kts | 176° |
| 2026-04-12 21:01 | 46.18195 | 8.65407 | 36962 ft | 417 kts | 176° |
| 2026-04-12 21:02 | 46.12411 | 8.66234 | 36966 ft | 417 kts | 174° |
| 2026-04-12 21:02 | 46.06732 | 8.68029 | 36966 ft | 419 kts | 167° |
| 2026-04-12 21:03 | 46.01110 | 8.70304 | 36966 ft | 420 kts | 166° |
| 2026-04-12 21:03 | 45.95503 | 8.72664 | 36943 ft | 419 kts | 166° |
| 2026-04-12 21:04 | 45.89880 | 8.75017 | 36967 ft | 423 kts | 166° |
| 2026-04-12 21:04 | 45.84230 | 8.77359 | 36967 ft | 422 kts | 166° |
| 2026-04-12 21:05 | 45.78582 | 8.79686 | 36966 ft | 422 kts | 166° |
| 2026-04-12 21:05 | 45.72932 | 8.82008 | 36959 ft | 422 kts | 166° |
| 2026-04-12 21:06 | 45.67318 | 8.84312 | 36969 ft | 422 kts | 166° |
| 2026-04-12 21:06 | 45.61628 | 8.86642 | 36965 ft | 422 kts | 165° |
| 2026-04-12 21:07 | 45.56022 | 8.88934 | 36964 ft | 421 kts | 166° |
| 2026-04-12 21:07 | 45.50384 | 8.91233 | 36960 ft | 421 kts | 166° |
| 2026-04-12 21:08 | 45.44750 | 8.93526 | 36958 ft | 421 kts | 166° |
| 2026-04-12 21:08 | 45.39113 | 8.95816 | 36944 ft | 422 kts | 165° |
| 2026-04-12 21:09 | 45.33458 | 8.98107 | 36936 ft | 423 kts | 165° |
| 2026-04-12 21:09 | 45.27796 | 9.00398 | 36939 ft | 423 kts | 165° |
| 2026-04-12 21:10 | 45.22136 | 9.02683 | 36932 ft | 423 kts | 165° |
| 2026-04-12 21:10 | 45.16469 | 9.04965 | 36935 ft | 424 kts | 165° |
| 2026-04-12 21:11 | 45.10795 | 9.07246 | 36932 ft | 424 kts | 165° |
| 2026-04-12 21:11 | 45.05118 | 9.09523 | 36937 ft | 424 kts | 165° |
| 2026-04-12 21:12 | 44.99442 | 9.11795 | 36918 ft | 424 kts | 165° |
| 2026-04-12 21:12 | 44.93756 | 9.14066 | 36920 ft | 425 kts | 165° |
| 2026-04-12 21:13 | 44.88057 | 9.16338 | 36915 ft | 425 kts | 165° |
| 2026-04-12 21:13 | 44.82365 | 9.18603 | 36915 ft | 425 kts | 165° |
| 2026-04-12 21:14 | 44.76702 | 9.20851 | 36906 ft | 426 kts | 165° |
| 2026-04-12 21:14 | 44.70983 | 9.23117 | 36909 ft | 427 kts | 165° |
| 2026-04-12 21:15 | 44.65267 | 9.25377 | 36902 ft | 427 kts | 165° |
| 2026-04-12 21:15 | 44.59554 | 9.27632 | 36896 ft | 427 kts | 164° |
| 2026-04-12 21:16 | 44.53837 | 9.29883 | 36893 ft | 427 kts | 164° |
| 2026-04-12 21:16 | 44.48117 | 9.32130 | 36896 ft | 427 kts | 164° |
| 2026-04-12 21:17 | 44.42394 | 9.34375 | 36889 ft | 427 kts | 164° |
| 2026-04-12 21:17 | 44.36673 | 9.36614 | 36878 ft | 427 kts | 164° |
| 2026-04-12 21:18 | 44.30956 | 9.38847 | 36885 ft | 427 kts | 164° |
| 2026-04-12 21:18 | 44.25232 | 9.41079 | 36876 ft | 427 kts | 164° |
| 2026-04-12 21:19 | 44.19511 | 9.43304 | 36868 ft | 427 kts | 164° |
| 2026-04-12 21:19 | 44.13785 | 9.45527 | 36855 ft | 427 kts | 164° |
| 2026-04-12 21:20 | 44.08060 | 9.47746 | 36858 ft | 427 kts | 164° |
| 2026-04-12 21:20 | 44.02330 | 9.49961 | 36852 ft | 427 kts | 164° |
| 2026-04-12 21:21 | 43.96585 | 9.52178 | 36853 ft | 430 kts | 164° |
| 2026-04-12 21:21 | 43.90821 | 9.54398 | 36852 ft | 430 kts | 164° |
| 2026-04-12 21:22 | 43.85047 | 9.56617 | 36849 ft | 430 kts | 164° |
| 2026-04-12 21:22 | 43.79276 | 9.58831 | 36850 ft | 431 kts | 164° |
| 2026-04-12 21:23 | 43.73444 | 9.60762 | 36842 ft | 431 kts | 167° |
| 2026-04-12 21:23 | 43.67592 | 9.62344 | 36844 ft | 431 kts | 168° |
| 2026-04-12 21:24 | 43.61695 | 9.63905 | 36848 ft | 431 kts | 168° |
| 2026-04-12 21:24 | 43.55796 | 9.65504 | 36840 ft | 432 kts | 168° |
| 2026-04-12 21:25 | 43.49899 | 9.67125 | 36833 ft | 432 kts | 167° |
| 2026-04-12 21:25 | 43.44001 | 9.68749 | 36834 ft | 432 kts | 167° |
| 2026-04-12 21:26 | 43.38096 | 9.70371 | 36829 ft | 434 kts | 167° |
| 2026-04-12 21:26 | 43.29200 | 9.72807 | 36835 ft | 435 kts | 167° |
| 2026-04-12 21:27 | 43.23260 | 9.74428 | 36829 ft | 435 kts | 167° |
| 2026-04-12 21:27 | 43.17320 | 9.76047 | 36830 ft | 436 kts | 168° |
| 2026-04-12 21:28 | 43.11364 | 9.77666 | 36828 ft | 436 kts | 168° |
| 2026-04-12 21:28 | 43.05407 | 9.79282 | 36832 ft | 436 kts | 168° |
| 2026-04-12 21:29 | 42.99450 | 9.80895 | 36828 ft | 437 kts | 168° |
| 2026-04-12 21:29 | 42.93487 | 9.82507 | 36828 ft | 437 kts | 168° |
| 2026-04-12 21:30 | 42.87524 | 9.84115 | 36820 ft | 436 kts | 168° |
| 2026-04-12 21:30 | 42.81578 | 9.85716 | 36818 ft | 435 kts | 168° |
| 2026-04-12 21:31 | 42.75550 | 9.86453 | 36822 ft | 437 kts | 179° |
| 2026-04-12 21:31 | 42.69466 | 9.86247 | 36823 ft | 438 kts | 181° |
| 2026-04-12 21:32 | 42.63380 | 9.85861 | 36818 ft | 438 kts | 181° |
| 2026-04-12 21:32 | 42.57290 | 9.85468 | 36821 ft | 438 kts | 181° |
| 2026-04-12 21:33 | 42.51205 | 9.85100 | 36826 ft | 438 kts | 181° |
| 2026-04-12 21:33 | 42.45118 | 9.84746 | 36822 ft | 438 kts | 181° |
| 2026-04-12 21:34 | 42.39072 | 9.84398 | 36807 ft | 438 kts | 181° |
| 2026-04-12 21:34 | 42.32982 | 9.84047 | 36812 ft | 438 kts | 181° |
| 2026-04-12 21:35 | 42.26893 | 9.83697 | 36796 ft | 438 kts | 181° |
| 2026-04-12 21:35 | 42.20806 | 9.83346 | 36827 ft | 438 kts | 181° |
| 2026-04-12 21:36 | 42.14715 | 9.82997 | 36798 ft | 439 kts | 181° |
| 2026-04-12 21:36 | 42.08610 | 9.82647 | 36793 ft | 439 kts | 181° |
| 2026-04-12 21:37 | 42.02504 | 9.82298 | 36788 ft | 439 kts | 181° |
| 2026-04-12 21:37 | 41.96396 | 9.81949 | 36785 ft | 440 kts | 181° |
| 2026-04-12 21:38 | 41.90272 | 9.81601 | 36780 ft | 441 kts | 181° |
| 2026-04-12 21:38 | 41.84143 | 9.81252 | 36771 ft | 441 kts | 181° |
| 2026-04-12 21:39 | 41.78014 | 9.80904 | 36774 ft | 441 kts | 181° |
| 2026-04-12 21:39 | 41.71880 | 9.80557 | 36767 ft | 441 kts | 180° |
| 2026-04-12 21:40 | 41.65742 | 9.80210 | 36757 ft | 442 kts | 180° |
| 2026-04-12 21:40 | 41.59601 | 9.79863 | 36752 ft | 442 kts | 180° |
| 2026-04-12 21:41 | 41.53455 | 9.79517 | 36750 ft | 442 kts | 180° |
| 2026-04-12 21:41 | 41.47303 | 9.79172 | 36744 ft | 443 kts | 180° |
| 2026-04-12 21:42 | 41.41183 | 9.78828 | 36738 ft | 443 kts | 180° |
| 2026-04-12 21:42 | 41.35024 | 9.78483 | 36738 ft | 443 kts | 181° |
| 2026-04-12 21:43 | 41.28837 | 9.78138 | 36731 ft | 447 kts | 181° |
| 2026-04-12 21:43 | 41.22616 | 9.77791 | 36727 ft | 448 kts | 181° |
| 2026-04-12 21:44 | 41.16393 | 9.77444 | 36718 ft | 448 kts | 181° |
| 2026-04-12 21:44 | 41.10169 | 9.77094 | 36720 ft | 448 kts | 182° |
| 2026-04-12 21:45 | 41.03945 | 9.76597 | 36715 ft | 448 kts | 183° |
| 2026-04-12 21:45 | 40.97724 | 9.76012 | 36721 ft | 448 kts | 183° |
| 2026-04-12 21:46 | 40.91500 | 9.75429 | 36716 ft | 448 kts | 183° |
| 2026-04-12 21:46 | 40.85265 | 9.74861 | 36716 ft | 450 kts | 183° |
| 2026-04-12 21:47 | 40.79014 | 9.74300 | 36714 ft | 450 kts | 183° |
| 2026-04-12 21:47 | 40.72766 | 9.73742 | 36704 ft | 450 kts | 183° |
| 2026-04-12 21:48 | 40.66515 | 9.73183 | 36697 ft | 451 kts | 183° |
| 2026-04-12 21:48 | 40.60249 | 9.72624 | 36695 ft | 451 kts | 183° |
| 2026-04-12 21:49 | 40.55045 | 9.72161 | 36696 ft | 451 kts | 183° |
| 2026-04-12 21:49 | 40.48778 | 9.71604 | 36695 ft | 451 kts | 184° |
| 2026-04-12 21:50 | 40.42504 | 9.71047 | 36696 ft | 452 kts | 184° |
| 2026-04-12 21:50 | 40.36219 | 9.70490 | 36694 ft | 453 kts | 184° |
| 2026-04-12 21:51 | 40.29937 | 9.69935 | 36691 ft | 453 kts | 184° |
| 2026-04-12 21:51 | 40.23653 | 9.69380 | 36682 ft | 453 kts | 184° |
| 2026-04-12 21:52 | 40.17367 | 9.68826 | 36680 ft | 453 kts | 184° |
| 2026-04-12 21:52 | 40.11080 | 9.68273 | 36686 ft | 453 kts | 184° |
| 2026-04-12 21:53 | 40.04793 | 9.67722 | 36683 ft | 453 kts | 184° |
| 2026-04-12 21:53 | 39.98501 | 9.67171 | 36692 ft | 453 kts | 184° |
| 2026-04-12 21:54 | 39.92212 | 9.66621 | 36710 ft | 453 kts | 184° |
| 2026-04-12 21:54 | 39.85919 | 9.66071 | 36723 ft | 453 kts | 184° |
| 2026-04-12 21:55 | 39.79630 | 9.65524 | 36752 ft | 453 kts | 184° |
| 2026-04-12 21:55 | 39.73391 | 9.64981 | 36769 ft | 453 kts | 184° |
| 2026-04-12 21:56 | 39.67107 | 9.64436 | 36781 ft | 453 kts | 184° |
| 2026-04-12 21:56 | 39.60821 | 9.63891 | 36764 ft | 453 kts | 185° |
| 2026-04-12 21:57 | 39.54540 | 9.63348 | 36745 ft | 452 kts | 185° |
| 2026-04-12 21:57 | 39.48256 | 9.62806 | 36722 ft | 452 kts | 185° |
| 2026-04-12 21:58 | 39.41974 | 9.62264 | 36680 ft | 452 kts | 185° |
| 2026-04-12 21:58 | 39.35688 | 9.61724 | 36640 ft | 453 kts | 185° |
| 2026-04-12 21:59 | 39.29389 | 9.61182 | 36637 ft | 454 kts | 185° |
| 2026-04-12 21:59 | 39.23092 | 9.60642 | 36637 ft | 454 kts | 185° |
| 2026-04-12 22:00 | 39.16791 | 9.60104 | 36632 ft | 454 kts | 186° |
| 2026-04-12 22:00 | 39.10496 | 9.59566 | 36633 ft | 453 kts | 186° |
| 2026-04-12 22:01 | 39.04197 | 9.59029 | 36630 ft | 454 kts | 186° |
| 2026-04-12 22:01 | 38.97899 | 9.58493 | 36624 ft | 454 kts | 186° |
| 2026-04-12 22:02 | 38.91632 | 9.58124 | 36620 ft | 455 kts | 180° |
| 2026-04-12 22:02 | 38.85352 | 9.59362 | 36615 ft | 459 kts | 170° |
| 2026-04-12 22:03 | 38.79136 | 9.61307 | 36612 ft | 460 kts | 168° |
| 2026-04-12 22:03 | 38.72934 | 9.63377 | 36612 ft | 460 kts | 168° |
| 2026-04-12 22:04 | 38.66732 | 9.65429 | 36606 ft | 460 kts | 169° |
| 2026-04-12 22:04 | 38.60524 | 9.67449 | 36605 ft | 460 kts | 169° |
| 2026-04-12 22:05 | 38.54314 | 9.69454 | 36609 ft | 460 kts | 169° |
| 2026-04-12 22:05 | 38.48099 | 9.71455 | 36590 ft | 460 kts | 170° |
| 2026-04-12 22:06 | 38.41896 | 9.73451 | 36606 ft | 460 kts | 170° |
| 2026-04-12 22:06 | 38.35693 | 9.75444 | 36603 ft | 459 kts | 170° |
| 2026-04-12 22:07 | 38.29494 | 9.77432 | 36606 ft | 459 kts | 170° |
| 2026-04-12 22:07 | 38.23295 | 9.79419 | 36592 ft | 459 kts | 170° |
| 2026-04-12 22:08 | 38.17135 | 9.81401 | 36606 ft | 460 kts | 170° |
| 2026-04-12 22:08 | 38.10926 | 9.83399 | 36588 ft | 460 kts | 170° |
| 2026-04-12 22:09 | 38.04729 | 9.85389 | 36612 ft | 459 kts | 171° |
| 2026-04-12 22:09 | 37.98546 | 9.87371 | 36613 ft | 458 kts | 171° |
| 2026-04-12 22:10 | 37.92369 | 9.89345 | 36614 ft | 458 kts | 171° |
| 2026-04-12 22:10 | 37.86187 | 9.91318 | 36618 ft | 458 kts | 171° |
| 2026-04-12 22:11 | 37.80002 | 9.93288 | 36615 ft | 458 kts | 171° |
| 2026-04-12 22:11 | 37.73823 | 9.95255 | 36614 ft | 458 kts | 171° |
| 2026-04-12 22:12 | 37.67647 | 9.97221 | 36618 ft | 458 kts | 171° |
| 2026-04-12 22:12 | 37.61472 | 9.99185 | 36622 ft | 458 kts | 171° |
| 2026-04-12 22:13 | 37.55297 | 10.01145 | 36622 ft | 458 kts | 171° |
| 2026-04-12 22:13 | 37.49124 | 10.03101 | 36622 ft | 457 kts | 172° |
| 2026-04-12 22:14 | 37.42952 | 10.05053 | 36628 ft | 457 kts | 172° |
| 2026-04-12 22:14 | 37.36779 | 10.06999 | 36628 ft | 457 kts | 172° |
| 2026-04-12 22:15 | 37.30604 | 10.08937 | 36631 ft | 457 kts | 172° |
| 2026-04-12 22:15 | 37.24478 | 10.10856 | 36635 ft | 457 kts | 172° |
| 2026-04-12 22:16 | 37.18278 | 10.12796 | 36634 ft | 456 kts | 172° |
| 2026-04-12 22:16 | 37.12166 | 10.14705 | 36643 ft | 456 kts | 172° |
| 2026-04-12 22:17 | 37.06015 | 10.16623 | 36650 ft | 456 kts | 172° |
| 2026-04-12 22:17 | 36.99860 | 10.18538 | 36656 ft | 456 kts | 172° |
| 2026-04-12 22:18 | 36.93703 | 10.20452 | 36632 ft | 456 kts | 172° |
| 2026-04-12 22:18 | 36.87552 | 10.22273 | 36667 ft | 450 kts | 177° |
| 2026-04-12 22:19 | 36.81412 | 10.22583 | 36663 ft | 438 kts | 189° |
| 2026-04-12 22:19 | 36.75355 | 10.21924 | 36664 ft | 436 kts | 191° |
| 2026-04-12 22:20 | 36.69319 | 10.21086 | 36656 ft | 436 kts | 192° |
| 2026-04-12 22:20 | 36.63286 | 10.20249 | 36659 ft | 437 kts | 191° |
| 2026-04-12 22:21 | 36.57227 | 10.19437 | 36646 ft | 439 kts | 191° |
| 2026-04-12 22:21 | 36.51151 | 10.18641 | 36639 ft | 439 kts | 191° |
| 2026-04-12 22:22 | 36.45066 | 10.17849 | 36642 ft | 440 kts | 191° |
| 2026-04-12 22:22 | 36.38982 | 10.17056 | 36641 ft | 440 kts | 191° |
| 2026-04-12 22:23 | 36.32901 | 10.16264 | 36646 ft | 439 kts | 191° |
| 2026-04-12 22:23 | 36.26825 | 10.15474 | 36646 ft | 438 kts | 192° |
| 2026-04-12 22:24 | 36.20778 | 10.14689 | 36648 ft | 437 kts | 192° |
| 2026-04-12 22:24 | 36.14734 | 10.13905 | 36647 ft | 437 kts | 192° |
| 2026-04-12 22:25 | 36.08692 | 10.13128 | 36646 ft | 437 kts | 192° |
| 2026-04-12 22:25 | 36.02651 | 10.12357 | 36646 ft | 436 kts | 192° |
| 2026-04-12 22:26 | 35.96628 | 10.11590 | 36650 ft | 435 kts | 192° |
| 2026-04-12 22:26 | 35.90611 | 10.10822 | 36653 ft | 435 kts | 192° |
| 2026-04-12 22:27 | 35.84590 | 10.10055 | 36653 ft | 435 kts | 192° |
| 2026-04-12 22:27 | 35.78575 | 10.09287 | 36653 ft | 434 kts | 192° |
| 2026-04-12 22:28 | 35.72567 | 10.08520 | 36656 ft | 434 kts | 192° |
| 2026-04-12 22:28 | 35.66560 | 10.07754 | 36655 ft | 434 kts | 192° |
| 2026-04-12 22:29 | 35.60597 | 10.06997 | 36658 ft | 434 kts | 192° |
| 2026-04-12 22:29 | 35.54552 | 10.06233 | 36657 ft | 434 kts | 192° |
| 2026-04-12 22:30 | 35.48546 | 10.05475 | 36663 ft | 434 kts | 192° |
| 2026-04-12 22:30 | 35.42546 | 10.04718 | 36664 ft | 434 kts | 192° |
| 2026-04-12 22:31 | 35.36542 | 10.03962 | 36667 ft | 434 kts | 192° |
| 2026-04-12 22:31 | 35.30538 | 10.03210 | 36660 ft | 433 kts | 193° |
| 2026-04-12 22:32 | 35.24592 | 10.02468 | 36666 ft | 432 kts | 193° |
| 2026-04-12 22:32 | 35.18611 | 10.01722 | 36672 ft | 432 kts | 193° |
| 2026-04-12 22:33 | 35.12632 | 10.00976 | 36678 ft | 432 kts | 193° |
| 2026-04-12 22:33 | 35.06652 | 10.00228 | 36668 ft | 432 kts | 193° |
| 2026-04-12 22:34 | 35.00682 | 9.99481 | 36680 ft | 431 kts | 193° |
| 2026-04-12 22:34 | 34.94717 | 9.98736 | 36680 ft | 431 kts | 193° |
| 2026-04-12 22:35 | 34.88748 | 9.97991 | 36680 ft | 431 kts | 193° |
| 2026-04-12 22:35 | 34.82782 | 9.97248 | 36659 ft | 431 kts | 193° |
| 2026-04-12 22:36 | 34.76822 | 9.96508 | 36686 ft | 430 kts | 193° |
| 2026-04-12 22:36 | 34.71873 | 9.95894 | 36689 ft | 430 kts | 193° |
| 2026-04-12 22:37 | 34.65921 | 9.95155 | 36686 ft | 430 kts | 193° |
| 2026-04-12 22:37 | 34.59967 | 9.94418 | 36692 ft | 430 kts | 193° |
| 2026-04-12 22:38 | 34.54023 | 9.93684 | 36688 ft | 429 kts | 193° |
| 2026-04-12 22:38 | 34.48088 | 9.92952 | 36696 ft | 428 kts | 193° |
| 2026-04-12 22:39 | 34.42160 | 9.92226 | 36697 ft | 429 kts | 192° |
| 2026-04-12 22:40 | 34.33127 | 9.91994 | 36654 ft | 434 kts | 188° |
| 2026-04-12 22:40 | 34.27093 | 9.92002 | 36696 ft | 433 kts | 188° |
| 2026-04-12 22:41 | 34.21063 | 9.92019 | 36691 ft | 433 kts | 188° |
| 2026-04-12 22:41 | 34.15040 | 9.92026 | 36696 ft | 433 kts | 188° |
| 2026-04-12 22:42 | 34.09015 | 9.92026 | 36705 ft | 433 kts | 188° |
| 2026-04-12 22:42 | 34.02988 | 9.92024 | 36698 ft | 433 kts | 188° |
| 2026-04-12 22:43 | 33.96957 | 9.92022 | 36703 ft | 434 kts | 188° |
| 2026-04-12 22:43 | 33.90924 | 9.92021 | 36711 ft | 433 kts | 188° |
| 2026-04-12 22:44 | 33.84894 | 9.92021 | 36717 ft | 433 kts | 188° |
| 2026-04-12 22:44 | 33.78902 | 9.92020 | 36698 ft | 434 kts | 188° |
| 2026-04-12 22:45 | 33.72921 | 9.91653 | 36730 ft | 425 kts | 197° |
| 2026-04-12 22:45 | 33.67216 | 9.90060 | 36718 ft | 420 kts | 201° |
| 2026-04-12 22:46 | 33.61599 | 9.88185 | 36720 ft | 419 kts | 202° |
| 2026-04-12 22:46 | 33.55997 | 9.86266 | 36734 ft | 419 kts | 202° |
| 2026-04-12 22:47 | 33.50376 | 9.84360 | 36730 ft | 421 kts | 202° |
| 2026-04-12 22:47 | 33.44734 | 9.82468 | 36736 ft | 421 kts | 202° |
| 2026-04-12 22:48 | 33.39092 | 9.80588 | 36746 ft | 421 kts | 202° |
| 2026-04-12 22:48 | 33.33454 | 9.78711 | 36746 ft | 420 kts | 202° |
| 2026-04-12 22:49 | 33.27818 | 9.76835 | 36744 ft | 420 kts | 202° |
| 2026-04-12 22:49 | 33.22184 | 9.74962 | 36746 ft | 420 kts | 202° |
| 2026-04-12 22:50 | 33.16550 | 9.73091 | 36742 ft | 420 kts | 202° |
| 2026-04-12 22:50 | 33.10916 | 9.71222 | 36745 ft | 420 kts | 202° |
| 2026-04-12 22:51 | 33.05283 | 9.69358 | 36747 ft | 420 kts | 202° |
| 2026-04-12 22:51 | 32.99686 | 9.67507 | 36747 ft | 420 kts | 202° |
| 2026-04-12 22:52 | 32.94052 | 9.65645 | 36749 ft | 420 kts | 202° |
| 2026-04-12 22:52 | 32.88417 | 9.63787 | 36751 ft | 420 kts | 202° |
| 2026-04-12 22:53 | 32.82784 | 9.61931 | 36755 ft | 420 kts | 202° |
| 2026-04-12 22:53 | 32.77150 | 9.60078 | 36747 ft | 420 kts | 202° |
| 2026-04-12 22:54 | 32.71505 | 9.58222 | 36756 ft | 421 kts | 202° |
| 2026-04-12 22:54 | 32.65854 | 9.56368 | 36768 ft | 421 kts | 202° |
| 2026-04-12 22:55 | 32.60201 | 9.54516 | 36768 ft | 421 kts | 202° |
| 2026-04-12 22:55 | 32.54551 | 9.52667 | 36762 ft | 421 kts | 202° |
| 2026-04-12 22:56 | 32.48895 | 9.50819 | 36766 ft | 422 kts | 202° |
| 2026-04-12 22:56 | 32.43233 | 9.48970 | 36770 ft | 422 kts | 202° |
| 2026-04-12 22:57 | 32.37570 | 9.47124 | 36771 ft | 422 kts | 202° |
| 2026-04-12 22:57 | 32.31943 | 9.45293 | 36776 ft | 422 kts | 202° |
| 2026-04-12 22:58 | 32.26285 | 9.43454 | 36749 ft | 422 kts | 202° |
| 2026-04-12 22:58 | 32.20629 | 9.41617 | 36780 ft | 422 kts | 202° |
| 2026-04-12 22:59 | 32.14973 | 9.39783 | 36781 ft | 422 kts | 202° |
| 2026-04-12 22:59 | 32.09318 | 9.37951 | 36780 ft | 422 kts | 202° |
| 2026-04-12 23:00 | 32.03659 | 9.36121 | 36787 ft | 422 kts | 202° |
| 2026-04-12 23:00 | 31.98004 | 9.34295 | 36780 ft | 421 kts | 202° |
| 2026-04-12 23:01 | 31.92345 | 9.32469 | 36789 ft | 422 kts | 202° |
| 2026-04-12 23:01 | 31.86687 | 9.30645 | 36791 ft | 422 kts | 202° |
| 2026-04-12 23:02 | 31.81024 | 9.28823 | 36792 ft | 422 kts | 202° |
| 2026-04-12 23:02 | 31.75359 | 9.27002 | 36796 ft | 422 kts | 202° |
| 2026-04-12 23:03 | 31.69875 | 9.24772 | 36796 ft | 411 kts | 213° |
| 2026-04-12 23:03 | 31.64878 | 9.21576 | 36800 ft | 408 kts | 216° |
| 2026-04-12 23:04 | 31.60002 | 9.18193 | 36804 ft | 407 kts | 217° |
| 2026-04-12 23:04 | 31.55139 | 9.14781 | 36804 ft | 407 kts | 217° |
| 2026-04-12 23:05 | 31.50268 | 9.11392 | 36811 ft | 407 kts | 217° |
| 2026-04-12 23:05 | 31.45386 | 9.08016 | 36803 ft | 407 kts | 217° |
| 2026-04-12 23:06 | 31.40511 | 9.04654 | 36795 ft | 406 kts | 217° |
| 2026-04-12 23:06 | 31.35641 | 9.01299 | 36811 ft | 406 kts | 217° |
| 2026-04-12 23:07 | 31.30770 | 8.97945 | 36818 ft | 406 kts | 217° |
| 2026-04-12 23:07 | 31.25901 | 8.94597 | 36818 ft | 406 kts | 217° |
| 2026-04-12 23:08 | 31.21027 | 8.91251 | 36774 ft | 406 kts | 217° |
| 2026-04-12 23:08 | 31.16153 | 8.87908 | 36816 ft | 406 kts | 217° |
| 2026-04-12 23:09 | 31.11311 | 8.84591 | 36818 ft | 406 kts | 217° |
| 2026-04-12 23:09 | 31.03996 | 8.79589 | 36818 ft | 406 kts | 217° |
| 2026-04-12 23:10 | 30.99116 | 8.76256 | 36822 ft | 406 kts | 217° |
| 2026-04-12 23:10 | 30.94241 | 8.72931 | 36791 ft | 406 kts | 217° |
| 2026-04-12 23:11 | 30.89363 | 8.69607 | 36829 ft | 406 kts | 217° |
| 2026-04-12 23:11 | 30.84491 | 8.66291 | 36824 ft | 406 kts | 217° |
| 2026-04-12 23:12 | 30.79618 | 8.62979 | 36822 ft | 405 kts | 217° |
| 2026-04-12 23:12 | 30.74747 | 8.59671 | 36828 ft | 406 kts | 217° |
| 2026-04-12 23:13 | 30.69872 | 8.56366 | 36827 ft | 406 kts | 217° |
| 2026-04-12 23:13 | 30.64991 | 8.53060 | 36820 ft | 406 kts | 217° |
| 2026-04-12 23:14 | 30.60113 | 8.49760 | 36829 ft | 406 kts | 217° |
| 2026-04-12 23:14 | 30.55233 | 8.46463 | 36829 ft | 406 kts | 217° |
| 2026-04-12 23:15 | 30.50354 | 8.43170 | 36826 ft | 406 kts | 217° |
| 2026-04-12 23:15 | 30.45478 | 8.39876 | 36833 ft | 405 kts | 217° |
| 2026-04-12 23:16 | 30.40615 | 8.36566 | 36833 ft | 405 kts | 218° |
| 2026-04-12 23:16 | 30.35752 | 8.33253 | 36846 ft | 406 kts | 217° |
| 2026-04-12 23:17 | 30.30895 | 8.29952 | 36839 ft | 404 kts | 217° |
| 2026-04-12 23:17 | 30.26078 | 8.26682 | 36837 ft | 404 kts | 217° |
| 2026-04-12 23:18 | 30.21223 | 8.23392 | 36840 ft | 404 kts | 217° |
| 2026-04-12 23:18 | 30.16371 | 8.20105 | 36838 ft | 404 kts | 217° |
| 2026-04-12 23:19 | 30.11471 | 8.16883 | 36852 ft | 409 kts | 214° |
| 2026-04-12 23:19 | 30.05993 | 8.14754 | 36835 ft | 426 kts | 199° |
| 2026-04-12 23:20 | 30.03009 | 8.14402 | 36847 ft | 438 kts | 191° |
| 2026-04-12 23:20 | 29.99926 | 8.14623 | 36835 ft | 450 kts | 182° |
| 2026-04-12 23:20 | 29.93708 | 8.15931 | 36829 ft | 457 kts | 179° |
| 2026-04-12 23:21 | 29.87482 | 8.17501 | 36842 ft | 458 kts | 178° |
| 2026-04-12 23:21 | 29.81252 | 8.19050 | 36842 ft | 459 kts | 179° |
| 2026-04-12 23:22 | 29.74999 | 8.20550 | 36849 ft | 460 kts | 179° |
| 2026-04-12 23:22 | 29.68737 | 8.22031 | 36851 ft | 459 kts | 179° |
| 2026-04-12 23:23 | 29.62473 | 8.23508 | 36848 ft | 459 kts | 179° |
| 2026-04-12 23:23 | 29.56214 | 8.24982 | 36816 ft | 459 kts | 179° |
| 2026-04-12 23:24 | 29.49947 | 8.26456 | 36851 ft | 460 kts | 179° |
| 2026-04-12 23:24 | 29.43714 | 8.27922 | 36850 ft | 460 kts | 179° |
| 2026-04-12 23:25 | 29.38459 | 8.29157 | 36851 ft | 460 kts | 179° |
| 2026-04-12 23:25 | 29.31165 | 8.30869 | 36855 ft | 460 kts | 179° |
| 2026-04-12 23:26 | 29.25909 | 8.32101 | 36831 ft | 460 kts | 179° |
| 2026-04-12 23:26 | 29.19619 | 8.33572 | 36859 ft | 462 kts | 179° |
| 2026-04-12 23:27 | 29.13327 | 8.35043 | 36858 ft | 462 kts | 179° |
| 2026-04-12 23:27 | 29.07037 | 8.36513 | 36862 ft | 461 kts | 179° |
| 2026-04-12 23:28 | 29.00748 | 8.37980 | 36862 ft | 461 kts | 179° |
| 2026-04-12 23:28 | 28.94496 | 8.39434 | 36866 ft | 463 kts | 179° |
| 2026-04-12 23:29 | 28.88176 | 8.40903 | 36870 ft | 464 kts | 179° |
| 2026-04-12 23:29 | 28.81851 | 8.42373 | 36863 ft | 464 kts | 179° |
| 2026-04-12 23:30 | 28.75524 | 8.43842 | 36868 ft | 464 kts | 179° |
| 2026-04-12 23:30 | 28.69198 | 8.45308 | 36844 ft | 464 kts | 179° |
| 2026-04-12 23:31 | 28.62862 | 8.46774 | 36876 ft | 465 kts | 179° |
| 2026-04-12 23:31 | 28.56508 | 8.48242 | 36874 ft | 466 kts | 179° |
| 2026-04-12 23:32 | 28.50154 | 8.49710 | 36873 ft | 466 kts | 179° |
| 2026-04-12 23:32 | 28.43800 | 8.51177 | 36873 ft | 466 kts | 179° |
| 2026-04-12 23:33 | 28.37450 | 8.52640 | 36858 ft | 466 kts | 179° |
| 2026-04-12 23:33 | 28.31075 | 8.54103 | 36873 ft | 468 kts | 179° |
| 2026-04-12 23:34 | 28.24693 | 8.55569 | 36870 ft | 468 kts | 179° |
| 2026-04-12 23:34 | 28.18306 | 8.57036 | 36865 ft | 468 kts | 179° |
| 2026-04-12 23:35 | 28.11925 | 8.58500 | 36866 ft | 468 kts | 179° |
| 2026-04-12 23:35 | 28.05534 | 8.59970 | 36861 ft | 469 kts | 179° |
| 2026-04-12 23:36 | 27.99131 | 8.61453 | 36863 ft | 470 kts | 179° |
| 2026-04-12 23:36 | 27.92728 | 8.62937 | 36863 ft | 470 kts | 179° |
| 2026-04-12 23:37 | 27.86322 | 8.64420 | 36861 ft | 470 kts | 179° |
| 2026-04-12 23:37 | 27.79922 | 8.65898 | 36861 ft | 470 kts | 179° |
| 2026-04-12 23:38 | 27.73514 | 8.67374 | 36862 ft | 471 kts | 180° |
| 2026-04-12 23:38 | 27.67095 | 8.68852 | 36863 ft | 471 kts | 180° |
| 2026-04-12 23:39 | 27.60679 | 8.70328 | 36862 ft | 471 kts | 180° |
| 2026-04-12 23:39 | 27.54258 | 8.71803 | 36859 ft | 471 kts | 180° |
| 2026-04-12 23:40 | 27.47876 | 8.73266 | 36855 ft | 472 kts | 180° |
| 2026-04-12 23:40 | 27.41444 | 8.74740 | 36857 ft | 472 kts | 180° |
| 2026-04-12 23:41 | 27.35012 | 8.76213 | 36856 ft | 472 kts | 180° |
| 2026-04-12 23:41 | 27.28580 | 8.77685 | 36853 ft | 472 kts | 180° |
| 2026-04-12 23:42 | 27.22147 | 8.79154 | 36854 ft | 472 kts | 180° |
| 2026-04-12 23:43 | 27.12485 | 8.81355 | 36853 ft | 473 kts | 181° |
| 2026-04-12 23:43 | 27.06026 | 8.82825 | 36851 ft | 474 kts | 180° |
| 2026-04-12 23:44 | 26.99563 | 8.84296 | 36856 ft | 474 kts | 180° |
| 2026-04-12 23:44 | 26.93099 | 8.85775 | 36865 ft | 474 kts | 180° |
| 2026-04-12 23:45 | 26.86635 | 8.87258 | 36861 ft | 475 kts | 181° |
| 2026-04-12 23:45 | 26.80144 | 8.88742 | 36877 ft | 477 kts | 181° |
| 2026-04-12 23:46 | 26.73639 | 8.90229 | 36876 ft | 477 kts | 181° |
| 2026-04-12 23:46 | 26.67131 | 8.91716 | 36854 ft | 477 kts | 181° |
| 2026-04-12 23:47 | 26.60632 | 8.93199 | 36854 ft | 477 kts | 181° |
| 2026-04-12 23:47 | 26.54169 | 8.94670 | 36859 ft | 478 kts | 182° |
| 2026-04-12 23:48 | 26.47643 | 8.96152 | 36861 ft | 479 kts | 181° |
| 2026-04-12 23:48 | 26.41112 | 8.97638 | 36866 ft | 479 kts | 182° |
| 2026-04-12 23:49 | 26.34585 | 8.99121 | 36858 ft | 479 kts | 182° |
| 2026-04-12 23:49 | 26.28058 | 9.00600 | 36829 ft | 479 kts | 182° |
| 2026-04-12 23:50 | 26.21518 | 9.02080 | 36878 ft | 480 kts | 182° |
| 2026-04-12 23:50 | 26.14964 | 9.03561 | 36877 ft | 481 kts | 182° |
| 2026-04-12 23:51 | 26.08412 | 9.05044 | 36877 ft | 480 kts | 182° |
| 2026-04-12 23:51 | 26.01868 | 9.06522 | 36878 ft | 480 kts | 182° |
| 2026-04-12 23:52 | 25.95320 | 9.08004 | 36854 ft | 480 kts | 182° |
| 2026-04-12 23:52 | 25.88759 | 9.09493 | 36868 ft | 481 kts | 182° |
| 2026-04-12 23:53 | 25.82199 | 9.10983 | 36874 ft | 481 kts | 182° |
| 2026-04-12 23:53 | 25.75645 | 9.12471 | 36874 ft | 481 kts | 182° |
| 2026-04-12 23:54 | 25.69083 | 9.13955 | 36877 ft | 481 kts | 182° |
| 2026-04-12 23:54 | 25.62524 | 9.15437 | 36876 ft | 483 kts | 182° |
| 2026-04-12 23:55 | 25.55917 | 9.16924 | 36882 ft | 486 kts | 182° |
| 2026-04-12 23:55 | 25.49297 | 9.18419 | 36877 ft | 486 kts | 182° |
| 2026-04-12 23:56 | 25.42675 | 9.19916 | 36882 ft | 486 kts | 182° |
| 2026-04-12 23:56 | 25.36055 | 9.21408 | 36886 ft | 486 kts | 182° |
| 2026-04-12 23:57 | 25.29416 | 9.22898 | 36890 ft | 489 kts | 182° |
| 2026-04-12 23:57 | 25.22742 | 9.24394 | 36882 ft | 490 kts | 182° |
| 2026-04-12 23:58 | 25.16063 | 9.25895 | 36890 ft | 490 kts | 182° |
| 2026-04-12 23:58 | 25.09376 | 9.27395 | 36900 ft | 490 kts | 182° |
| 2026-04-12 23:59 | 25.02693 | 9.28892 | 36858 ft | 490 kts | 182° |
| 2026-04-12 23:59 | 24.95983 | 9.30387 | 36909 ft | 493 kts | 182° |
| 2026-04-13 00:00 | 24.89249 | 9.31891 | 36913 ft | 494 kts | 182° |
| 2026-04-13 00:00 | 24.82515 | 9.33397 | 36913 ft | 494 kts | 182° |
| 2026-04-13 00:01 | 24.75783 | 9.34900 | 36910 ft | 493 kts | 182° |
| 2026-04-13 00:01 | 24.69053 | 9.36400 | 36893 ft | 494 kts | 182° |
| 2026-04-13 00:02 | 24.62311 | 9.37898 | 36904 ft | 494 kts | 182° |
| 2026-04-13 00:02 | 24.55567 | 9.39395 | 36948 ft | 495 kts | 182° |
| 2026-04-13 00:03 | 24.48814 | 9.40892 | 36976 ft | 495 kts | 182° |
| 2026-04-13 00:03 | 24.42058 | 9.42390 | 37002 ft | 495 kts | 182° |
| 2026-04-13 00:04 | 24.35305 | 9.43886 | 37022 ft | 495 kts | 182° |
| 2026-04-13 00:04 | 24.28609 | 9.45820 | 37018 ft | 517 kts | 170° |
| 2026-04-13 00:04 | 24.25278 | 9.47575 | 37012 ft | 528 kts | 164° |
| 2026-04-13 00:05 | 24.22041 | 9.49510 | 37027 ft | 533 kts | 162° |
| 2026-04-13 00:05 | 24.15665 | 9.53602 | 36995 ft | 536 kts | 160° |
| 2026-04-13 00:06 | 24.09258 | 9.57790 | 36948 ft | 536 kts | 160° |
| 2026-04-13 00:06 | 24.02844 | 9.61935 | 36919 ft | 536 kts | 161° |
| 2026-04-13 00:07 | 23.96414 | 9.66049 | 36897 ft | 535 kts | 161° |
| 2026-04-13 00:07 | 23.89978 | 9.70152 | 36896 ft | 535 kts | 161° |
| 2026-04-13 00:08 | 23.83544 | 9.74249 | 36895 ft | 535 kts | 161° |
| 2026-04-13 00:08 | 23.77112 | 9.78342 | 36898 ft | 535 kts | 161° |
| 2026-04-13 00:09 | 23.70684 | 9.82428 | 36892 ft | 534 kts | 161° |
| 2026-04-13 00:09 | 23.64261 | 9.86507 | 36896 ft | 534 kts | 160° |
| 2026-04-13 00:10 | 23.57844 | 9.90577 | 36904 ft | 534 kts | 160° |
| 2026-04-13 00:10 | 23.51422 | 9.94645 | 36891 ft | 534 kts | 160° |
| 2026-04-13 00:11 | 23.46083 | 9.98024 | 36893 ft | 534 kts | 160° |
| 2026-04-13 00:11 | 23.39658 | 10.02086 | 36894 ft | 534 kts | 160° |
| 2026-04-13 00:12 | 23.33245 | 10.06138 | 36891 ft | 532 kts | 160° |
| 2026-04-13 00:12 | 23.26843 | 10.10176 | 36893 ft | 532 kts | 160° |
| 2026-04-13 00:13 | 23.20436 | 10.14212 | 36898 ft | 532 kts | 160° |
| 2026-04-13 00:13 | 23.14029 | 10.18243 | 36898 ft | 532 kts | 160° |
| 2026-04-13 00:14 | 23.07621 | 10.22272 | 36886 ft | 532 kts | 160° |
| 2026-04-13 00:14 | 23.01226 | 10.26289 | 36897 ft | 531 kts | 160° |
| 2026-04-13 00:15 | 22.94832 | 10.30300 | 36901 ft | 531 kts | 160° |
| 2026-04-13 00:15 | 22.88441 | 10.34304 | 36899 ft | 531 kts | 160° |
| 2026-04-13 00:16 | 22.82047 | 10.38305 | 36898 ft | 531 kts | 160° |
| 2026-04-13 00:16 | 22.75654 | 10.42302 | 36856 ft | 530 kts | 159° |
| 2026-04-13 00:17 | 22.69265 | 10.46293 | 36902 ft | 529 kts | 159° |
| 2026-04-13 00:17 | 22.62889 | 10.50283 | 36894 ft | 530 kts | 159° |
| 2026-04-13 00:18 | 22.56574 | 10.54450 | 36896 ft | 532 kts | 157° |
| 2026-04-13 00:18 | 22.50295 | 10.58698 | 36894 ft | 532 kts | 156° |
| 2026-04-13 00:19 | 22.44021 | 10.62933 | 36896 ft | 531 kts | 157° |
| 2026-04-13 00:19 | 22.37744 | 10.67141 | 36894 ft | 531 kts | 156° |
| 2026-04-13 00:20 | 22.31498 | 10.71312 | 36896 ft | 532 kts | 156° |
| 2026-04-13 00:20 | 22.25208 | 10.75509 | 36892 ft | 532 kts | 156° |
| 2026-04-13 00:21 | 22.18911 | 10.79706 | 36890 ft | 532 kts | 156° |
| 2026-04-13 00:21 | 22.12618 | 10.83898 | 36894 ft | 532 kts | 156° |
| 2026-04-13 00:22 | 22.06323 | 10.88086 | 36885 ft | 532 kts | 156° |
| 2026-04-13 00:22 | 22.00017 | 10.92277 | 36892 ft | 533 kts | 156° |
| 2026-04-13 00:23 | 21.93710 | 10.96464 | 36890 ft | 533 kts | 156° |
| 2026-04-13 00:23 | 21.87401 | 11.00649 | 36889 ft | 533 kts | 156° |
| 2026-04-13 00:24 | 21.81091 | 11.04829 | 36888 ft | 532 kts | 156° |
| 2026-04-13 00:24 | 21.74780 | 11.09005 | 36869 ft | 532 kts | 156° |
| 2026-04-13 00:25 | 21.68474 | 11.13175 | 36884 ft | 532 kts | 156° |
| 2026-04-13 00:25 | 21.62169 | 11.17339 | 36890 ft | 532 kts | 156° |
| 2026-04-13 00:26 | 21.55866 | 11.21497 | 36890 ft | 532 kts | 156° |
| 2026-04-13 00:26 | 21.49563 | 11.25651 | 36886 ft | 532 kts | 156° |
| 2026-04-13 00:27 | 21.43254 | 11.29805 | 36890 ft | 532 kts | 156° |
| 2026-04-13 00:27 | 21.36948 | 11.33952 | 36886 ft | 532 kts | 156° |
| 2026-04-13 00:28 | 21.30628 | 11.38104 | 36886 ft | 533 kts | 156° |
| 2026-04-13 00:28 | 21.24306 | 11.42254 | 36883 ft | 533 kts | 156° |
| 2026-04-13 00:29 | 21.17980 | 11.46402 | 36883 ft | 533 kts | 156° |
| 2026-04-13 00:29 | 21.11698 | 11.50518 | 36880 ft | 533 kts | 156° |
| 2026-04-13 00:30 | 21.05329 | 11.54687 | 36877 ft | 533 kts | 156° |
| 2026-04-13 00:30 | 20.99042 | 11.58798 | 36881 ft | 533 kts | 156° |
| 2026-04-13 00:31 | 20.92712 | 11.62932 | 36878 ft | 533 kts | 156° |
| 2026-04-13 00:31 | 20.86383 | 11.67063 | 36878 ft | 533 kts | 156° |
| 2026-04-13 00:32 | 20.80052 | 11.71190 | 36879 ft | 533 kts | 156° |
| 2026-04-13 00:32 | 20.73724 | 11.75312 | 36884 ft | 533 kts | 156° |
| 2026-04-13 00:33 | 20.67395 | 11.79430 | 36875 ft | 533 kts | 155° |
| 2026-04-13 00:33 | 20.61067 | 11.83543 | 36875 ft | 532 kts | 155° |
| 2026-04-13 00:34 | 20.54738 | 11.87653 | 36875 ft | 532 kts | 156° |
| 2026-04-13 00:34 | 20.48407 | 11.91757 | 36882 ft | 532 kts | 156° |
| 2026-04-13 00:35 | 20.42076 | 11.95858 | 36882 ft | 532 kts | 156° |
| 2026-04-13 00:35 | 20.35746 | 11.99954 | 36879 ft | 532 kts | 155° |
| 2026-04-13 00:36 | 20.29420 | 12.04044 | 36880 ft | 531 kts | 155° |
| 2026-04-13 00:36 | 20.23103 | 12.08124 | 36880 ft | 531 kts | 155° |
| 2026-04-13 00:37 | 20.13633 | 12.14233 | 36878 ft | 531 kts | 155° |
| 2026-04-13 00:37 | 20.07315 | 12.18303 | 36877 ft | 531 kts | 155° |
| 2026-04-13 00:38 | 20.01043 | 12.22340 | 36878 ft | 530 kts | 155° |
| 2026-04-13 00:38 | 19.94736 | 12.26397 | 36882 ft | 530 kts | 155° |
| 2026-04-13 00:39 | 19.88430 | 12.30448 | 36882 ft | 530 kts | 155° |
| 2026-04-13 00:39 | 19.82117 | 12.34500 | 36881 ft | 530 kts | 155° |
| 2026-04-13 00:40 | 19.75810 | 12.38545 | 36883 ft | 530 kts | 155° |
| 2026-04-13 00:40 | 19.69499 | 12.42587 | 36863 ft | 529 kts | 155° |
| 2026-04-13 00:41 | 19.63205 | 12.46617 | 36883 ft | 528 kts | 155° |
| 2026-04-13 00:41 | 19.56919 | 12.50637 | 36883 ft | 528 kts | 155° |
| 2026-04-13 00:42 | 19.50630 | 12.54655 | 36886 ft | 528 kts | 155° |
| 2026-04-13 00:42 | 19.44339 | 12.58669 | 36887 ft | 528 kts | 155° |
| 2026-04-13 00:43 | 19.38049 | 12.62681 | 36886 ft | 528 kts | 155° |
| 2026-04-13 00:43 | 19.31757 | 12.66690 | 36879 ft | 528 kts | 155° |
| 2026-04-13 00:44 | 19.22306 | 12.72705 | 36884 ft | 528 kts | 155° |
| 2026-04-13 00:45 | 19.16003 | 12.76711 | 36881 ft | 529 kts | 155° |
| 2026-04-13 00:45 | 19.09745 | 12.80687 | 36886 ft | 528 kts | 155° |
| 2026-04-13 00:46 | 19.03446 | 12.84684 | 36887 ft | 528 kts | 155° |
| 2026-04-13 00:46 | 18.96999 | 12.88254 | 36884 ft | 517 kts | 166° |
| 2026-04-13 00:47 | 18.90210 | 12.90711 | 36886 ft | 515 kts | 169° |
| 2026-04-13 00:47 | 18.83373 | 12.92940 | 36885 ft | 514 kts | 170° |
| 2026-04-13 00:48 | 18.76528 | 12.95136 | 36881 ft | 514 kts | 170° |
| 2026-04-13 00:48 | 18.69684 | 12.97350 | 36881 ft | 515 kts | 169° |
| 2026-04-13 00:49 | 18.62840 | 12.99579 | 36884 ft | 515 kts | 169° |
| 2026-04-13 00:49 | 18.55986 | 13.01814 | 36885 ft | 516 kts | 169° |
| 2026-04-13 00:50 | 18.49129 | 13.04049 | 36885 ft | 516 kts | 169° |
| 2026-04-13 00:50 | 18.42270 | 13.06281 | 36882 ft | 516 kts | 169° |
| 2026-04-13 00:51 | 18.35406 | 13.08513 | 36880 ft | 516 kts | 169° |
| 2026-04-13 00:51 | 18.28551 | 13.10739 | 36881 ft | 516 kts | 169° |
| 2026-04-13 00:52 | 18.21698 | 13.12964 | 36878 ft | 515 kts | 169° |
| 2026-04-13 00:52 | 18.14850 | 13.15185 | 36878 ft | 515 kts | 169° |
| 2026-04-13 00:53 | 18.08001 | 13.17404 | 36876 ft | 515 kts | 169° |
| 2026-04-13 00:53 | 18.01156 | 13.19621 | 36878 ft | 515 kts | 169° |
| 2026-04-13 00:54 | 17.94306 | 13.21836 | 36878 ft | 515 kts | 168° |
| 2026-04-13 00:54 | 17.87460 | 13.24049 | 36881 ft | 515 kts | 168° |
| 2026-04-13 00:55 | 17.80657 | 13.26246 | 36877 ft | 515 kts | 168° |
| 2026-04-13 00:55 | 17.73810 | 13.28456 | 36878 ft | 515 kts | 168° |
| 2026-04-13 00:56 | 17.66964 | 13.30664 | 36875 ft | 515 kts | 168° |
| 2026-04-13 00:56 | 17.60112 | 13.32871 | 36875 ft | 515 kts | 168° |
| 2026-04-13 00:57 | 17.53262 | 13.35077 | 36877 ft | 515 kts | 168° |
| 2026-04-13 00:57 | 17.46410 | 13.37281 | 36876 ft | 515 kts | 168° |
| 2026-04-13 00:58 | 17.39561 | 13.39483 | 36875 ft | 515 kts | 168° |
| 2026-04-13 00:58 | 17.32703 | 13.41685 | 36875 ft | 515 kts | 168° |
| 2026-04-13 00:59 | 17.27011 | 13.43511 | 36862 ft | 515 kts | 168° |
| 2026-04-13 00:59 | 17.20153 | 13.45711 | 36871 ft | 515 kts | 168° |
| 2026-04-13 01:00 | 17.13298 | 13.47908 | 36866 ft | 515 kts | 168° |
| 2026-04-13 01:00 | 17.06441 | 13.50105 | 36870 ft | 516 kts | 168° |
| 2026-04-13 01:01 | 16.99585 | 13.52298 | 36867 ft | 515 kts | 168° |
| 2026-04-13 01:01 | 16.92735 | 13.54488 | 36857 ft | 515 kts | 168° |
| 2026-04-13 01:02 | 16.85879 | 13.56679 | 36861 ft | 516 kts | 168° |
| 2026-04-13 01:02 | 16.79016 | 13.58869 | 36862 ft | 516 kts | 168° |
| 2026-04-13 01:03 | 16.72151 | 13.61059 | 36854 ft | 516 kts | 168° |
| 2026-04-13 01:03 | 16.65330 | 13.63234 | 36858 ft | 516 kts | 168° |
| 2026-04-13 01:04 | 16.58459 | 13.65423 | 36845 ft | 516 kts | 168° |
| 2026-04-13 01:04 | 16.51590 | 13.67609 | 36856 ft | 517 kts | 168° |
| 2026-04-13 01:05 | 16.44709 | 13.69797 | 36851 ft | 517 kts | 168° |
| 2026-04-13 01:05 | 16.37830 | 13.71983 | 36851 ft | 517 kts | 168° |
| 2026-04-13 01:06 | 16.30948 | 13.74169 | 36841 ft | 517 kts | 168° |
| 2026-04-13 01:06 | 16.24070 | 13.76351 | 36829 ft | 517 kts | 167° |
| 2026-04-13 01:07 | 16.17183 | 13.78534 | 36840 ft | 517 kts | 167° |
| 2026-04-13 01:07 | 16.10291 | 13.80718 | 36839 ft | 518 kts | 167° |
| 2026-04-13 01:08 | 16.03401 | 13.82900 | 36837 ft | 518 kts | 167° |
| 2026-04-13 01:08 | 15.96510 | 13.85081 | 36838 ft | 518 kts | 167° |
| 2026-04-13 01:09 | 15.89622 | 13.87259 | 36837 ft | 517 kts | 167° |
| 2026-04-13 01:09 | 15.82792 | 13.89417 | 36836 ft | 516 kts | 167° |
| 2026-04-13 01:10 | 15.75924 | 13.91585 | 36840 ft | 516 kts | 167° |
| 2026-04-13 01:10 | 15.69054 | 13.93752 | 36835 ft | 516 kts | 167° |
| 2026-04-13 01:11 | 15.62183 | 13.95918 | 36835 ft | 516 kts | 167° |
| 2026-04-13 01:11 | 15.55310 | 13.98083 | 36828 ft | 516 kts | 167° |
| 2026-04-13 01:12 | 15.48440 | 14.00246 | 36826 ft | 516 kts | 167° |
| 2026-04-13 01:12 | 15.41568 | 14.02408 | 36827 ft | 516 kts | 167° |
| 2026-04-13 01:13 | 15.34700 | 14.04568 | 36824 ft | 516 kts | 167° |
| 2026-04-13 01:13 | 15.27845 | 14.06722 | 36831 ft | 514 kts | 167° |
| 2026-04-13 01:14 | 15.21007 | 14.08869 | 36833 ft | 513 kts | 167° |
| 2026-04-13 01:14 | 15.14165 | 14.11015 | 36816 ft | 514 kts | 167° |
| 2026-04-13 01:15 | 15.07313 | 14.13163 | 36833 ft | 515 kts | 167° |
| 2026-04-13 01:15 | 15.00461 | 14.15310 | 36827 ft | 515 kts | 167° |
| 2026-04-13 01:16 | 14.93610 | 14.17455 | 36825 ft | 515 kts | 167° |
| 2026-04-13 01:16 | 14.86757 | 14.19600 | 36810 ft | 514 kts | 167° |
| 2026-04-13 01:17 | 14.79905 | 14.21743 | 36807 ft | 515 kts | 167° |
| 2026-04-13 01:17 | 14.73044 | 14.23887 | 36811 ft | 515 kts | 167° |
| 2026-04-13 01:18 | 14.66234 | 14.26014 | 36818 ft | 515 kts | 167° |
| 2026-04-13 01:18 | 14.59383 | 14.28152 | 36807 ft | 515 kts | 167° |
| 2026-04-13 01:19 | 14.52526 | 14.30290 | 36814 ft | 515 kts | 167° |
| 2026-04-13 01:19 | 14.45672 | 14.32426 | 36807 ft | 514 kts | 166° |
| 2026-04-13 01:20 | 14.38822 | 14.34561 | 36812 ft | 514 kts | 166° |
| 2026-04-13 01:20 | 14.31975 | 14.36692 | 36815 ft | 514 kts | 166° |
| 2026-04-13 01:21 | 14.25126 | 14.38823 | 36811 ft | 514 kts | 166° |
| 2026-04-13 01:21 | 14.18277 | 14.40952 | 36810 ft | 514 kts | 166° |
| 2026-04-13 01:22 | 14.11427 | 14.43080 | 36807 ft | 514 kts | 166° |
| 2026-04-13 01:22 | 14.04581 | 14.45206 | 36803 ft | 514 kts | 166° |
| 2026-04-13 01:23 | 13.97730 | 14.47332 | 36818 ft | 514 kts | 166° |
| 2026-04-13 01:23 | 13.90883 | 14.49456 | 36816 ft | 514 kts | 166° |
| 2026-04-13 01:24 | 13.84037 | 14.51578 | 36811 ft | 514 kts | 166° |
| 2026-04-13 01:24 | 13.77187 | 14.53699 | 36802 ft | 514 kts | 166° |
| 2026-04-13 01:25 | 13.70379 | 14.55806 | 36814 ft | 514 kts | 166° |
| 2026-04-13 01:25 | 13.63524 | 14.57927 | 36811 ft | 515 kts | 166° |
| 2026-04-13 01:26 | 13.56666 | 14.60048 | 36809 ft | 515 kts | 166° |
| 2026-04-13 01:26 | 13.49808 | 14.62166 | 36811 ft | 515 kts | 166° |
| 2026-04-13 01:27 | 13.42953 | 14.64284 | 36805 ft | 515 kts | 166° |
| 2026-04-13 01:27 | 13.36097 | 14.66399 | 36808 ft | 514 kts | 166° |
| 2026-04-13 01:28 | 13.29243 | 14.68514 | 36809 ft | 514 kts | 166° |
| 2026-04-13 01:28 | 13.22388 | 14.70627 | 36804 ft | 514 kts | 166° |
| 2026-04-13 01:29 | 13.15530 | 14.72740 | 36805 ft | 514 kts | 166° |
| 2026-04-13 01:29 | 13.08673 | 14.74851 | 36801 ft | 514 kts | 166° |
| 2026-04-13 01:30 | 13.01819 | 14.76960 | 36801 ft | 514 kts | 166° |
| 2026-04-13 01:30 | 12.94970 | 14.79066 | 36800 ft | 514 kts | 166° |
| 2026-04-13 01:31 | 12.88126 | 14.81170 | 36798 ft | 514 kts | 166° |
| 2026-04-13 01:31 | 12.81280 | 14.83273 | 36794 ft | 514 kts | 166° |
| 2026-04-13 01:32 | 12.74432 | 14.85375 | 36793 ft | 514 kts | 166° |
| 2026-04-13 01:32 | 12.67586 | 14.87476 | 36791 ft | 513 kts | 166° |
| 2026-04-13 01:33 | 12.60757 | 14.89571 | 36791 ft | 512 kts | 166° |
| 2026-04-13 01:33 | 12.53928 | 14.91663 | 36790 ft | 512 kts | 166° |
| 2026-04-13 01:34 | 12.47105 | 14.93753 | 36788 ft | 511 kts | 166° |
| 2026-04-13 01:34 | 12.40345 | 14.95823 | 36789 ft | 510 kts | 166° |
| 2026-04-13 01:35 | 12.33545 | 14.97904 | 36789 ft | 510 kts | 165° |
| 2026-04-13 01:35 | 12.26760 | 14.99979 | 36792 ft | 508 kts | 165° |
| 2026-04-13 01:36 | 12.19985 | 15.02050 | 36801 ft | 508 kts | 165° |
| 2026-04-13 01:36 | 12.13148 | 15.03799 | 36803 ft | 505 kts | 175° |
| 2026-04-13 01:37 | 12.06180 | 15.04648 | 36802 ft | 504 kts | 177° |
| 2026-04-13 01:37 | 11.99202 | 15.05317 | 36792 ft | 504 kts | 178° |
| 2026-04-13 01:38 | 11.92228 | 15.05958 | 36794 ft | 502 kts | 177° |
| 2026-04-13 01:38 | 11.85276 | 15.06613 | 36795 ft | 501 kts | 177° |
| 2026-04-13 01:39 | 11.78327 | 15.07279 | 36792 ft | 501 kts | 177° |
| 2026-04-13 01:39 | 11.71381 | 15.07948 | 36798 ft | 501 kts | 177° |
| 2026-04-13 01:40 | 11.64434 | 15.08616 | 36797 ft | 502 kts | 177° |
| 2026-04-13 01:40 | 11.57489 | 15.09284 | 36797 ft | 501 kts | 177° |
| 2026-04-13 01:41 | 11.50556 | 15.09949 | 36796 ft | 500 kts | 177° |
| 2026-04-13 01:41 | 11.43629 | 15.10614 | 36791 ft | 500 kts | 177° |
| 2026-04-13 01:42 | 11.36697 | 15.11279 | 36798 ft | 500 kts | 177° |
| 2026-04-13 01:42 | 11.29768 | 15.11943 | 36790 ft | 500 kts | 177° |
| 2026-04-13 01:43 | 11.15948 | 15.13267 | 36793 ft | 501 kts | 177° |
| 2026-04-13 01:44 | 11.09012 | 15.13931 | 36791 ft | 501 kts | 177° |
| 2026-04-13 01:44 | 11.02075 | 15.14595 | 36791 ft | 501 kts | 177° |
| 2026-04-13 01:45 | 10.95137 | 15.15258 | 36792 ft | 501 kts | 177° |
| 2026-04-13 01:45 | 10.88202 | 15.15921 | 36793 ft | 501 kts | 177° |
| 2026-04-13 01:46 | 10.81260 | 15.16584 | 36795 ft | 501 kts | 177° |
| 2026-04-13 01:46 | 10.74319 | 15.17247 | 36792 ft | 501 kts | 177° |
| 2026-04-13 01:47 | 10.67371 | 15.17910 | 36793 ft | 501 kts | 177° |
| 2026-04-13 01:47 | 10.60426 | 15.18573 | 36797 ft | 501 kts | 177° |
| 2026-04-13 01:48 | 10.54656 | 15.19124 | 36794 ft | 501 kts | 177° |
| 2026-04-13 01:48 | 10.47709 | 15.19786 | 36800 ft | 501 kts | 177° |
| 2026-04-13 01:49 | 10.40763 | 15.20448 | 36805 ft | 501 kts | 177° |
| 2026-04-13 01:49 | 10.32693 | 15.21216 | 36800 ft | 501 kts | 177° |
| 2026-04-13 01:50 | 10.26877 | 15.21770 | 36798 ft | 501 kts | 177° |
| 2026-04-13 01:50 | 10.19932 | 15.22431 | 36804 ft | 501 kts | 177° |
| 2026-04-13 01:51 | 10.12990 | 15.23092 | 36803 ft | 501 kts | 177° |
| 2026-04-13 01:51 | 10.06053 | 15.23751 | 36805 ft | 501 kts | 177° |
| 2026-04-13 01:52 | 9.99112 | 15.24411 | 36805 ft | 501 kts | 177° |
| 2026-04-13 01:52 | 9.92223 | 15.25066 | 36809 ft | 501 kts | 177° |
| 2026-04-13 01:53 | 9.85283 | 15.25725 | 36810 ft | 501 kts | 177° |
| 2026-04-13 01:53 | 9.78337 | 15.26385 | 36809 ft | 501 kts | 177° |
| 2026-04-13 01:54 | 9.71389 | 15.27044 | 36814 ft | 502 kts | 177° |
| 2026-04-13 01:54 | 9.64436 | 15.27704 | 36814 ft | 502 kts | 177° |
| 2026-04-13 01:55 | 9.57484 | 15.28363 | 36816 ft | 502 kts | 177° |
| 2026-04-13 01:55 | 9.50534 | 15.29022 | 36812 ft | 502 kts | 177° |
| 2026-04-13 01:56 | 9.43583 | 15.29681 | 36822 ft | 502 kts | 177° |
| 2026-04-13 01:56 | 9.36620 | 15.30340 | 36816 ft | 502 kts | 177° |
| 2026-04-13 01:57 | 9.29658 | 15.30999 | 36821 ft | 502 kts | 177° |
| 2026-04-13 01:57 | 9.22700 | 15.31657 | 36820 ft | 502 kts | 177° |
| 2026-04-13 01:58 | 9.15734 | 15.32316 | 36819 ft | 502 kts | 177° |
| 2026-04-13 01:58 | 9.08773 | 15.32973 | 36822 ft | 503 kts | 177° |
| 2026-04-13 01:59 | 9.01810 | 15.33631 | 36823 ft | 503 kts | 177° |
| 2026-04-13 01:59 | 8.94846 | 15.34289 | 36825 ft | 503 kts | 177° |
| 2026-04-13 02:00 | 8.87878 | 15.34946 | 36824 ft | 503 kts | 177° |
| 2026-04-13 02:00 | 8.80915 | 15.35604 | 36828 ft | 503 kts | 177° |
| 2026-04-13 02:01 | 8.73944 | 15.36261 | 36831 ft | 503 kts | 176° |
| 2026-04-13 02:01 | 8.66982 | 15.36917 | 36827 ft | 503 kts | 176° |
| 2026-04-13 02:02 | 8.60016 | 15.37574 | 36832 ft | 503 kts | 176° |
| 2026-04-13 02:02 | 8.53051 | 15.38230 | 36831 ft | 503 kts | 176° |
| 2026-04-13 02:03 | 8.46140 | 15.38881 | 36833 ft | 503 kts | 176° |
| 2026-04-13 02:03 | 8.39173 | 15.39537 | 36836 ft | 502 kts | 176° |
| 2026-04-13 02:04 | 8.32211 | 15.40192 | 36840 ft | 502 kts | 176° |
| 2026-04-13 02:04 | 8.25248 | 15.40847 | 36841 ft | 502 kts | 176° |
| 2026-04-13 02:05 | 8.18284 | 15.41502 | 36840 ft | 503 kts | 176° |
| 2026-04-13 02:05 | 8.11321 | 15.42157 | 36841 ft | 503 kts | 176° |
| 2026-04-13 02:06 | 8.04359 | 15.42811 | 36841 ft | 502 kts | 176° |
| 2026-04-13 02:06 | 7.97399 | 15.43465 | 36845 ft | 502 kts | 176° |
| 2026-04-13 02:07 | 7.90445 | 15.44118 | 36848 ft | 502 kts | 176° |
| 2026-04-13 02:07 | 7.83489 | 15.44772 | 36855 ft | 502 kts | 176° |
| 2026-04-13 02:08 | 7.76534 | 15.45425 | 36856 ft | 502 kts | 176° |
| 2026-04-13 02:08 | 7.69579 | 15.46078 | 36865 ft | 502 kts | 176° |
| 2026-04-13 02:09 | 7.62625 | 15.46730 | 36867 ft | 501 kts | 176° |
| 2026-04-13 02:09 | 7.55683 | 15.47382 | 36867 ft | 501 kts | 176° |
| 2026-04-13 02:10 | 7.48739 | 15.48033 | 36885 ft | 501 kts | 176° |
| 2026-04-13 02:10 | 7.41843 | 15.48679 | 36901 ft | 501 kts | 176° |
| 2026-04-13 02:11 | 7.34899 | 15.49330 | 36885 ft | 501 kts | 176° |
| 2026-04-13 02:11 | 7.27960 | 15.49981 | 36909 ft | 500 kts | 176° |
| 2026-04-13 02:12 | 7.21037 | 15.50629 | 36908 ft | 499 kts | 176° |
| 2026-04-13 02:12 | 7.14122 | 15.51276 | 36903 ft | 499 kts | 176° |
| 2026-04-13 02:13 | 7.07204 | 15.51924 | 36911 ft | 499 kts | 176° |
| 2026-04-13 02:13 | 7.00286 | 15.52571 | 36925 ft | 499 kts | 176° |
| 2026-04-13 02:14 | 6.93373 | 15.53218 | 36921 ft | 499 kts | 176° |
| 2026-04-13 02:14 | 6.86456 | 15.53864 | 36932 ft | 499 kts | 176° |
| 2026-04-13 02:15 | 6.79544 | 15.54510 | 36929 ft | 499 kts | 176° |
| 2026-04-13 02:15 | 6.72627 | 15.55156 | 36931 ft | 499 kts | 176° |
| 2026-04-13 02:16 | 6.65707 | 15.55801 | 36938 ft | 499 kts | 176° |
| 2026-04-13 02:16 | 6.58790 | 15.56447 | 36929 ft | 499 kts | 176° |
| 2026-04-13 02:17 | 6.51903 | 15.57090 | 36934 ft | 494 kts | 176° |
| 2026-04-13 02:17 | 6.45116 | 15.57723 | 36932 ft | 493 kts | 176° |
| 2026-04-13 02:18 | 6.38289 | 15.58359 | 36920 ft | 493 kts | 176° |
| 2026-04-13 02:18 | 6.31464 | 15.58994 | 36928 ft | 493 kts | 176° |
| 2026-04-13 02:19 | 6.24634 | 15.59631 | 36925 ft | 493 kts | 176° |
| 2026-04-13 02:19 | 6.17809 | 15.60267 | 36922 ft | 492 kts | 176° |
| 2026-04-13 02:20 | 6.10988 | 15.60902 | 36918 ft | 492 kts | 176° |
| 2026-04-13 02:20 | 6.04172 | 15.61537 | 36915 ft | 492 kts | 176° |
| 2026-04-13 02:21 | 5.97355 | 15.62171 | 36913 ft | 492 kts | 176° |
| 2026-04-13 02:21 | 5.90536 | 15.62806 | 36914 ft | 492 kts | 176° |
| 2026-04-13 02:22 | 5.83715 | 15.63440 | 36903 ft | 492 kts | 176° |
| 2026-04-13 02:22 | 5.76892 | 15.64075 | 36905 ft | 493 kts | 176° |
| 2026-04-13 02:23 | 5.70068 | 15.64710 | 36895 ft | 492 kts | 176° |
| 2026-04-13 02:23 | 5.63253 | 15.65344 | 36896 ft | 492 kts | 176° |
| 2026-04-13 02:24 | 5.56440 | 15.65977 | 36889 ft | 492 kts | 176° |
| 2026-04-13 02:24 | 5.49631 | 15.66612 | 36881 ft | 492 kts | 175° |
| 2026-04-13 02:25 | 5.42819 | 15.67247 | 36895 ft | 491 kts | 175° |
| 2026-04-13 02:25 | 5.36013 | 15.67881 | 36885 ft | 491 kts | 175° |
| 2026-04-13 02:26 | 5.29209 | 15.68516 | 36884 ft | 491 kts | 175° |
| 2026-04-13 02:26 | 5.22410 | 15.69149 | 36881 ft | 491 kts | 175° |
| 2026-04-13 02:27 | 5.15605 | 15.69782 | 36882 ft | 491 kts | 176° |
| 2026-04-13 02:27 | 5.08804 | 15.70416 | 36878 ft | 490 kts | 175° |
| 2026-04-13 02:28 | 5.02012 | 15.71048 | 36876 ft | 490 kts | 175° |
| 2026-04-13 02:28 | 4.95227 | 15.71679 | 36878 ft | 490 kts | 175° |
| 2026-04-13 02:29 | 4.88440 | 15.72311 | 36878 ft | 490 kts | 175° |
| 2026-04-13 02:29 | 4.81656 | 15.72942 | 36873 ft | 490 kts | 175° |
| 2026-04-13 02:30 | 4.74865 | 15.73571 | 36870 ft | 490 kts | 175° |
| 2026-04-13 02:30 | 4.68080 | 15.74200 | 36869 ft | 490 kts | 175° |
| 2026-04-13 02:31 | 4.61288 | 15.74829 | 36873 ft | 490 kts | 175° |
| 2026-04-13 02:31 | 4.54501 | 15.75459 | 36868 ft | 490 kts | 175° |
| 2026-04-13 02:32 | 4.47759 | 15.76084 | 36867 ft | 490 kts | 175° |
| 2026-04-13 02:32 | 4.40970 | 15.76713 | 36865 ft | 490 kts | 175° |
| 2026-04-13 02:33 | 4.34193 | 15.77340 | 36861 ft | 488 kts | 176° |
| 2026-04-13 02:33 | 4.27443 | 15.77965 | 36868 ft | 487 kts | 176° |
| 2026-04-13 02:34 | 4.20696 | 15.78230 | 36866 ft | 486 kts | 183° |
| 2026-04-13 02:34 | 4.13933 | 15.77987 | 36864 ft | 487 kts | 184° |
| 2026-04-13 02:35 | 4.07167 | 15.77650 | 36863 ft | 487 kts | 184° |
| 2026-04-13 02:35 | 4.00401 | 15.77304 | 36864 ft | 486 kts | 185° |
| 2026-04-13 02:36 | 3.94799 | 15.77027 | 36863 ft | 484 kts | 185° |
| 2026-04-13 02:36 | 3.88075 | 15.76702 | 36860 ft | 484 kts | 185° |
| 2026-04-13 02:37 | 3.81352 | 15.76379 | 36860 ft | 484 kts | 185° |
| 2026-04-13 02:37 | 3.74629 | 15.76055 | 36861 ft | 484 kts | 185° |
| 2026-04-13 02:38 | 3.67905 | 15.75730 | 36855 ft | 484 kts | 185° |
| 2026-04-13 02:38 | 3.61180 | 15.75407 | 36866 ft | 483 kts | 184° |
| 2026-04-13 02:39 | 3.54475 | 15.75083 | 36862 ft | 482 kts | 184° |
| 2026-04-13 02:39 | 3.47769 | 15.74760 | 36851 ft | 482 kts | 184° |
| 2026-04-13 02:40 | 3.41064 | 15.74436 | 36860 ft | 482 kts | 184° |
| 2026-04-13 02:40 | 3.34358 | 15.74113 | 36861 ft | 482 kts | 184° |
| 2026-04-13 02:41 | 3.27652 | 15.73791 | 36862 ft | 482 kts | 184° |
| 2026-04-13 02:41 | 3.20948 | 15.73468 | 36859 ft | 482 kts | 184° |
| 2026-04-13 02:42 | 3.14246 | 15.73145 | 36863 ft | 482 kts | 184° |
| 2026-04-13 02:42 | 3.07537 | 15.72821 | 36862 ft | 482 kts | 184° |
| 2026-04-13 02:43 | 3.00835 | 15.72499 | 36849 ft | 482 kts | 184° |
| 2026-04-13 02:43 | 2.94128 | 15.72176 | 36855 ft | 482 kts | 184° |
| 2026-04-13 02:44 | 2.87426 | 15.71854 | 36844 ft | 482 kts | 184° |
| 2026-04-13 02:44 | 2.80729 | 15.71532 | 36841 ft | 482 kts | 184° |
| 2026-04-13 02:45 | 2.74032 | 15.71208 | 36845 ft | 482 kts | 184° |
| 2026-04-13 02:45 | 2.67339 | 15.70886 | 36847 ft | 482 kts | 184° |
| 2026-04-13 02:46 | 2.60642 | 15.70563 | 36840 ft | 482 kts | 184° |
| 2026-04-13 02:46 | 2.53991 | 15.70242 | 36844 ft | 482 kts | 184° |
| 2026-04-13 02:47 | 2.43938 | 15.69759 | 36838 ft | 482 kts | 184° |
| 2026-04-13 02:47 | 2.37234 | 15.69436 | 36839 ft | 482 kts | 184° |
| 2026-04-13 02:48 | 2.30533 | 15.69113 | 36842 ft | 482 kts | 184° |
| 2026-04-13 02:48 | 2.23829 | 15.68790 | 36852 ft | 482 kts | 184° |
| 2026-04-13 02:49 | 2.17127 | 15.68467 | 36842 ft | 482 kts | 184° |
| 2026-04-13 02:49 | 2.10428 | 15.68145 | 36846 ft | 482 kts | 184° |
| 2026-04-13 02:50 | 2.03732 | 15.67823 | 36839 ft | 482 kts | 184° |
| 2026-04-13 02:50 | 1.97033 | 15.67500 | 36839 ft | 482 kts | 184° |
| 2026-04-13 02:51 | 1.90334 | 15.67178 | 36839 ft | 482 kts | 184° |
| 2026-04-13 02:51 | 1.83642 | 15.66855 | 36841 ft | 482 kts | 184° |
| 2026-04-13 02:52 | 1.76946 | 15.66533 | 36838 ft | 481 kts | 184° |
| 2026-04-13 02:52 | 1.70258 | 15.66211 | 36837 ft | 481 kts | 184° |
| 2026-04-13 02:53 | 1.63575 | 15.65889 | 36837 ft | 481 kts | 184° |
| 2026-04-13 02:53 | 1.56885 | 15.65567 | 36842 ft | 481 kts | 184° |
| 2026-04-13 02:54 | 1.50197 | 15.65245 | 36844 ft | 481 kts | 184° |
| 2026-04-13 02:54 | 1.43509 | 15.64924 | 36850 ft | 481 kts | 184° |
| 2026-04-13 02:55 | 1.36827 | 15.64602 | 36845 ft | 480 kts | 184° |
| 2026-04-13 02:55 | 1.30154 | 15.64281 | 36844 ft | 480 kts | 184° |
| 2026-04-13 02:56 | 1.23476 | 15.63959 | 36847 ft | 480 kts | 184° |
| 2026-04-13 02:56 | 1.16797 | 15.63638 | 36847 ft | 480 kts | 184° |
| 2026-04-13 02:57 | 1.10117 | 15.63317 | 36846 ft | 481 kts | 184° |
| 2026-04-13 02:57 | 1.03437 | 15.62996 | 36847 ft | 480 kts | 184° |
| 2026-04-13 02:58 | 0.96808 | 15.62677 | 36851 ft | 480 kts | 184° |
| 2026-04-13 02:58 | 0.90133 | 15.62356 | 36846 ft | 480 kts | 184° |
| 2026-04-13 02:59 | 0.83457 | 15.62035 | 36844 ft | 480 kts | 184° |
| 2026-04-13 02:59 | 0.76783 | 15.61714 | 36847 ft | 480 kts | 184° |
| 2026-04-13 03:00 | 0.70108 | 15.61393 | 36851 ft | 480 kts | 184° |
| 2026-04-13 03:00 | 0.63439 | 15.61073 | 36847 ft | 479 kts | 184° |
| 2026-04-13 03:01 | 0.56777 | 15.60752 | 36846 ft | 479 kts | 184° |
| 2026-04-13 03:01 | 0.50119 | 15.60432 | 36848 ft | 479 kts | 184° |
| 2026-04-13 03:02 | 0.43457 | 15.60111 | 36851 ft | 479 kts | 184° |
| 2026-04-13 03:02 | 0.36798 | 15.59791 | 36851 ft | 479 kts | 184° |
| 2026-04-13 03:03 | 0.30142 | 15.59471 | 36847 ft | 478 kts | 184° |
| 2026-04-13 03:03 | 0.23499 | 15.59151 | 36845 ft | 478 kts | 184° |
| 2026-04-13 03:04 | 0.16856 | 15.58831 | 36851 ft | 478 kts | 184° |
| 2026-04-13 03:04 | 0.10210 | 15.58512 | 36851 ft | 478 kts | 184° |
| 2026-04-13 03:05 | 0.03564 | 15.58192 | 36846 ft | 478 kts | 184° |
| 2026-04-13 03:05 | -0.03083 | 15.57860 | 36853 ft | 478 kts | 184° |
| 2026-04-13 03:06 | -0.09710 | 15.57395 | 36854 ft | 477 kts | 185° |
| 2026-04-13 03:06 | -0.16336 | 15.56877 | 36850 ft | 477 kts | 185° |
| 2026-04-13 03:07 | -0.22914 | 15.56370 | 36850 ft | 477 kts | 185° |
| 2026-04-13 03:07 | -0.29538 | 15.55870 | 36850 ft | 477 kts | 185° |
| 2026-04-13 03:08 | -0.36164 | 15.55376 | 36852 ft | 478 kts | 185° |
| 2026-04-13 03:08 | -0.42793 | 15.54882 | 36852 ft | 478 kts | 185° |
| 2026-04-13 03:09 | -0.49420 | 15.54387 | 36856 ft | 478 kts | 185° |
| 2026-04-13 03:09 | -0.56049 | 15.53892 | 36855 ft | 478 kts | 185° |
| 2026-04-13 03:10 | -0.62676 | 15.53397 | 36854 ft | 478 kts | 185° |
| 2026-04-13 03:10 | -0.69307 | 15.52901 | 36859 ft | 478 kts | 185° |
| 2026-04-13 03:11 | -0.75932 | 15.52407 | 36858 ft | 478 kts | 185° |
| 2026-04-13 03:11 | -0.82567 | 15.51911 | 36857 ft | 478 kts | 185° |
| 2026-04-13 03:12 | -0.89209 | 15.51415 | 36861 ft | 479 kts | 185° |
| 2026-04-13 03:12 | -0.95851 | 15.50918 | 36864 ft | 479 kts | 185° |
| 2026-04-13 03:13 | -1.02493 | 15.50422 | 36864 ft | 479 kts | 185° |
| 2026-04-13 03:13 | -1.09133 | 15.49926 | 36870 ft | 479 kts | 185° |
| 2026-04-13 03:14 | -1.15777 | 15.49429 | 36873 ft | 479 kts | 185° |
| 2026-04-13 03:14 | -1.22420 | 15.48934 | 36872 ft | 479 kts | 185° |
| 2026-04-13 03:15 | -1.29062 | 15.48440 | 36875 ft | 479 kts | 185° |
| 2026-04-13 03:15 | -1.35708 | 15.47945 | 36882 ft | 479 kts | 185° |
| 2026-04-13 03:16 | -1.42354 | 15.47451 | 36882 ft | 479 kts | 185° |
| 2026-04-13 03:16 | -1.48956 | 15.46959 | 36885 ft | 479 kts | 185° |
| 2026-04-13 03:17 | -1.55607 | 15.46464 | 36886 ft | 480 kts | 185° |
| 2026-04-13 03:17 | -1.62311 | 15.45965 | 36888 ft | 480 kts | 185° |
| 2026-04-13 03:18 | -1.68927 | 15.45472 | 36888 ft | 480 kts | 185° |
| 2026-04-13 03:18 | -1.75585 | 15.44976 | 36885 ft | 480 kts | 185° |
| 2026-04-13 03:19 | -1.82242 | 15.44477 | 36888 ft | 480 kts | 185° |
| 2026-04-13 03:19 | -1.88906 | 15.43943 | 36888 ft | 481 kts | 185° |
| 2026-04-13 03:20 | -1.95587 | 15.43395 | 36893 ft | 482 kts | 185° |
| 2026-04-13 03:20 | -2.02269 | 15.42849 | 36893 ft | 482 kts | 185° |
| 2026-04-13 03:21 | -2.08957 | 15.42304 | 36905 ft | 482 kts | 185° |
| 2026-04-13 03:21 | -2.15643 | 15.41761 | 36901 ft | 482 kts | 185° |
| 2026-04-13 03:22 | -2.21197 | 15.41311 | 36910 ft | 482 kts | 185° |
| 2026-04-13 03:22 | -2.27879 | 15.40768 | 36909 ft | 481 kts | 185° |
| 2026-04-13 03:23 | -2.34556 | 15.40226 | 36908 ft | 481 kts | 185° |
| 2026-04-13 03:23 | -2.41228 | 15.39685 | 36917 ft | 481 kts | 185° |
| 2026-04-13 03:24 | -2.47903 | 15.39142 | 36921 ft | 481 kts | 185° |
| 2026-04-13 03:24 | -2.54579 | 15.38600 | 36918 ft | 481 kts | 185° |
| 2026-04-13 03:25 | -2.61259 | 15.38057 | 36917 ft | 482 kts | 185° |
| 2026-04-13 03:25 | -2.67960 | 15.37513 | 36927 ft | 484 kts | 185° |
| 2026-04-13 03:26 | -2.74674 | 15.36967 | 36924 ft | 484 kts | 185° |
| 2026-04-13 03:26 | -2.81389 | 15.36421 | 36926 ft | 484 kts | 185° |
| 2026-04-13 03:27 | -2.88100 | 15.35876 | 36926 ft | 484 kts | 185° |
| 2026-04-13 03:27 | -2.94813 | 15.35330 | 36929 ft | 484 kts | 185° |
| 2026-04-13 03:28 | -3.01518 | 15.34786 | 36931 ft | 483 kts | 185° |
| 2026-04-13 03:28 | -3.08210 | 15.34241 | 36933 ft | 482 kts | 185° |
| 2026-04-13 03:29 | -3.14901 | 15.33697 | 36934 ft | 482 kts | 185° |
| 2026-04-13 03:29 | -3.21550 | 15.33156 | 36935 ft | 483 kts | 185° |
| 2026-04-13 03:30 | -3.28241 | 15.32612 | 36940 ft | 483 kts | 185° |
| 2026-04-13 03:30 | -3.34932 | 15.32067 | 36943 ft | 482 kts | 185° |
| 2026-04-13 03:31 | -3.41608 | 15.31524 | 36950 ft | 481 kts | 185° |
| 2026-04-13 03:31 | -3.48271 | 15.30982 | 36952 ft | 481 kts | 185° |
| 2026-04-13 03:32 | -3.54937 | 15.30440 | 36954 ft | 481 kts | 185° |
| 2026-04-13 03:32 | -3.61604 | 15.29897 | 36955 ft | 481 kts | 185° |
| 2026-04-13 03:33 | -3.68268 | 15.29354 | 36956 ft | 481 kts | 185° |
| 2026-04-13 03:33 | -3.74947 | 15.28810 | 36951 ft | 483 kts | 185° |
| 2026-04-13 03:34 | -3.81647 | 15.28264 | 36949 ft | 483 kts | 185° |
| 2026-04-13 03:34 | -3.88346 | 15.27719 | 36947 ft | 483 kts | 185° |
| 2026-04-13 03:35 | -3.95043 | 15.27174 | 36951 ft | 483 kts | 185° |
| 2026-04-13 03:35 | -4.01737 | 15.26628 | 36950 ft | 483 kts | 185° |
| 2026-04-13 03:36 | -4.08435 | 15.26082 | 36950 ft | 483 kts | 185° |
| 2026-04-13 03:36 | -4.15128 | 15.25542 | 36945 ft | 483 kts | 183° |
| 2026-04-13 03:37 | -4.21795 | 15.26067 | 36943 ft | 482 kts | 166° |
| 2026-04-13 03:37 | -4.24975 | 15.27128 | 36909 ft | 482 kts | 155° |
| 2026-04-13 03:37 | -4.27909 | 15.28736 | 36910 ft | 481 kts | 145° |
| 2026-04-13 03:38 | -4.32836 | 15.33262 | 36914 ft | 483 kts | 132° |
| 2026-04-13 03:38 | -4.37477 | 15.38132 | 36910 ft | 484 kts | 140° |
| 2026-04-13 03:39 | -4.43217 | 15.41587 | 36913 ft | 484 kts | 160° |
| 2026-04-13 03:39 | -4.49782 | 15.42982 | 36912 ft | 484 kts | 173° |
| 2026-04-13 03:40 | -4.56478 | 15.43712 | 36910 ft | 484 kts | 175° |
| 2026-04-13 03:40 | -4.63146 | 15.44343 | 36913 ft | 485 kts | 175° |
| 2026-04-13 03:41 | -4.69854 | 15.45015 | 36917 ft | 484 kts | 174° |
| 2026-04-13 03:41 | -4.76557 | 15.45722 | 36915 ft | 484 kts | 174° |
| 2026-04-13 03:42 | -4.83261 | 15.46441 | 36916 ft | 485 kts | 174° |
| 2026-04-13 03:43 | -4.93330 | 15.47519 | 36920 ft | 485 kts | 174° |
| 2026-04-13 03:43 | -5.00045 | 15.48237 | 36922 ft | 485 kts | 174° |
| 2026-04-13 03:44 | -5.06758 | 15.48954 | 36918 ft | 485 kts | 174° |
| 2026-04-13 03:44 | -5.13467 | 15.49671 | 36922 ft | 485 kts | 174° |
| 2026-04-13 03:45 | -5.20194 | 15.50390 | 36920 ft | 487 kts | 174° |
| 2026-04-13 03:45 | -5.26896 | 15.51106 | 36920 ft | 488 kts | 174° |
| 2026-04-13 03:46 | -5.33649 | 15.51828 | 36927 ft | 488 kts | 174° |
| 2026-04-13 03:46 | -5.40403 | 15.52551 | 36924 ft | 488 kts | 174° |
| 2026-04-13 03:47 | -5.47159 | 15.53274 | 36925 ft | 488 kts | 174° |
| 2026-04-13 03:47 | -5.53915 | 15.53997 | 36922 ft | 488 kts | 174° |
| 2026-04-13 03:48 | -5.60675 | 15.54721 | 36924 ft | 489 kts | 174° |
| 2026-04-13 03:48 | -5.67442 | 15.55445 | 36926 ft | 489 kts | 174° |
| 2026-04-13 03:49 | -5.74208 | 15.56169 | 36921 ft | 489 kts | 174° |
| 2026-04-13 03:49 | -5.80976 | 15.56894 | 36925 ft | 489 kts | 174° |
| 2026-04-13 03:50 | -5.87744 | 15.57620 | 36919 ft | 489 kts | 175° |
| 2026-04-13 03:50 | -5.94511 | 15.58347 | 36921 ft | 490 kts | 174° |
| 2026-04-13 03:51 | -6.01289 | 15.59075 | 36921 ft | 490 kts | 174° |
| 2026-04-13 03:51 | -6.08022 | 15.59799 | 36918 ft | 490 kts | 174° |
| 2026-04-13 03:52 | -6.18185 | 15.60891 | 36920 ft | 490 kts | 174° |
| 2026-04-13 03:52 | -6.24961 | 15.61620 | 36915 ft | 490 kts | 175° |
| 2026-04-13 03:53 | -6.31734 | 15.62349 | 36920 ft | 489 kts | 175° |
| 2026-04-13 03:53 | -6.38500 | 15.63076 | 36918 ft | 489 kts | 175° |
| 2026-04-13 03:54 | -6.45267 | 15.63805 | 36920 ft | 489 kts | 175° |
| 2026-04-13 03:54 | -6.52038 | 15.64534 | 36919 ft | 490 kts | 175° |
| 2026-04-13 03:55 | -6.58834 | 15.65265 | 36917 ft | 492 kts | 175° |
| 2026-04-13 03:55 | -6.65626 | 15.65998 | 36921 ft | 490 kts | 175° |
| 2026-04-13 03:56 | -6.72397 | 15.66727 | 36929 ft | 489 kts | 175° |
| 2026-04-13 03:56 | -6.79159 | 15.67456 | 36931 ft | 489 kts | 175° |
| 2026-04-13 03:57 | -6.85925 | 15.68185 | 36931 ft | 489 kts | 175° |
| 2026-04-13 03:57 | -6.92689 | 15.68914 | 36934 ft | 489 kts | 175° |
| 2026-04-13 03:58 | -6.99458 | 15.69644 | 36932 ft | 491 kts | 175° |
| 2026-04-13 03:58 | -7.06274 | 15.70379 | 36934 ft | 493 kts | 175° |
| 2026-04-13 03:59 | -7.13107 | 15.71117 | 36931 ft | 494 kts | 175° |
| 2026-04-13 03:59 | -7.19938 | 15.71855 | 36936 ft | 494 kts | 175° |
| 2026-04-13 04:00 | -7.26769 | 15.72593 | 36936 ft | 494 kts | 175° |
| 2026-04-13 04:00 | -7.33599 | 15.73331 | 36939 ft | 494 kts | 175° |
| 2026-04-13 04:01 | -7.40437 | 15.74069 | 36938 ft | 494 kts | 175° |
| 2026-04-13 04:01 | -7.47227 | 15.74802 | 36936 ft | 494 kts | 175° |
| 2026-04-13 04:02 | -7.54068 | 15.75542 | 36942 ft | 494 kts | 175° |
| 2026-04-13 04:02 | -7.60903 | 15.76282 | 36939 ft | 494 kts | 175° |
| 2026-04-13 04:03 | -7.67742 | 15.77022 | 36942 ft | 494 kts | 175° |
| 2026-04-13 04:03 | -7.74580 | 15.77760 | 36939 ft | 494 kts | 175° |
| 2026-04-13 04:04 | -7.81420 | 15.78497 | 36936 ft | 494 kts | 175° |
| 2026-04-13 04:04 | -7.88257 | 15.79235 | 36935 ft | 494 kts | 175° |
| 2026-04-13 04:05 | -7.95093 | 15.79973 | 36946 ft | 494 kts | 175° |
| 2026-04-13 04:05 | -8.01931 | 15.80712 | 36945 ft | 494 kts | 175° |
| 2026-04-13 04:06 | -8.08768 | 15.81454 | 36946 ft | 494 kts | 175° |
| 2026-04-13 04:06 | -8.15599 | 15.82199 | 36942 ft | 494 kts | 175° |
| 2026-04-13 04:07 | -8.22428 | 15.82944 | 36952 ft | 494 kts | 175° |
| 2026-04-13 04:07 | -8.29255 | 15.83689 | 36947 ft | 494 kts | 175° |
| 2026-04-13 04:08 | -8.36041 | 15.84430 | 36955 ft | 494 kts | 175° |
| 2026-04-13 04:08 | -8.42908 | 15.85177 | 36951 ft | 492 kts | 175° |
| 2026-04-13 04:09 | -8.49645 | 15.85908 | 36952 ft | 489 kts | 175° |
| 2026-04-13 04:09 | -8.56408 | 15.86643 | 36958 ft | 489 kts | 175° |
| 2026-04-13 04:10 | -8.63166 | 15.87376 | 36958 ft | 489 kts | 175° |
| 2026-04-13 04:10 | -8.69928 | 15.88111 | 36957 ft | 489 kts | 175° |
| 2026-04-13 04:11 | -8.76692 | 15.88847 | 36955 ft | 489 kts | 175° |
| 2026-04-13 04:11 | -8.82309 | 15.89458 | 36954 ft | 488 kts | 175° |
| 2026-04-13 04:12 | -8.89065 | 15.90194 | 36955 ft | 488 kts | 175° |
| 2026-04-13 04:12 | -8.95817 | 15.90930 | 36953 ft | 488 kts | 175° |
| 2026-04-13 04:13 | -9.02576 | 15.91666 | 36956 ft | 488 kts | 175° |
| 2026-04-13 04:13 | -9.09332 | 15.92403 | 36956 ft | 488 kts | 175° |
| 2026-04-13 04:14 | -9.16097 | 15.93140 | 36957 ft | 490 kts | 175° |
| 2026-04-13 04:14 | -9.22877 | 15.93880 | 36951 ft | 490 kts | 175° |
| 2026-04-13 04:15 | -9.29661 | 15.94620 | 36956 ft | 490 kts | 175° |
| 2026-04-13 04:15 | -9.36450 | 15.95362 | 36954 ft | 490 kts | 175° |
| 2026-04-13 04:16 | -9.43233 | 15.96103 | 36954 ft | 490 kts | 175° |
| 2026-04-13 04:16 | -9.50019 | 15.96845 | 36953 ft | 490 kts | 176° |
| 2026-04-13 04:17 | -9.56796 | 15.97587 | 36952 ft | 490 kts | 176° |
| 2026-04-13 04:17 | -9.63570 | 15.98329 | 36951 ft | 490 kts | 176° |
| 2026-04-13 04:18 | -9.70345 | 15.99072 | 36952 ft | 490 kts | 176° |
| 2026-04-13 04:18 | -9.77118 | 15.99814 | 36951 ft | 490 kts | 176° |
| 2026-04-13 04:19 | -9.83887 | 16.00557 | 36958 ft | 489 kts | 176° |
| 2026-04-13 04:19 | -9.90645 | 16.01299 | 36956 ft | 488 kts | 176° |
| 2026-04-13 04:20 | -9.97402 | 16.02040 | 36958 ft | 488 kts | 176° |
| 2026-04-13 04:20 | -10.04158 | 16.02782 | 36965 ft | 488 kts | 176° |
| 2026-04-13 04:21 | -10.10913 | 16.03532 | 36963 ft | 488 kts | 175° |
| 2026-04-13 04:21 | -10.17664 | 16.04330 | 36980 ft | 489 kts | 176° |
| 2026-04-13 04:22 | -10.24415 | 16.05143 | 36970 ft | 489 kts | 176° |
| 2026-04-13 04:22 | -10.31127 | 16.05949 | 36972 ft | 489 kts | 176° |
| 2026-04-13 04:23 | -10.37885 | 16.06756 | 36973 ft | 489 kts | 176° |
| 2026-04-13 04:23 | -10.44637 | 16.07562 | 36974 ft | 489 kts | 176° |
| 2026-04-13 04:24 | -10.51395 | 16.08368 | 36981 ft | 489 kts | 176° |
| 2026-04-13 04:24 | -10.58149 | 16.09175 | 36981 ft | 489 kts | 176° |
| 2026-04-13 04:25 | -10.64905 | 16.09982 | 36992 ft | 489 kts | 176° |
| 2026-04-13 04:25 | -10.71663 | 16.10790 | 36994 ft | 489 kts | 176° |
| 2026-04-13 04:26 | -10.78420 | 16.11599 | 36999 ft | 489 kts | 176° |
| 2026-04-13 04:26 | -10.85179 | 16.12408 | 37000 ft | 489 kts | 176° |
| 2026-04-13 04:27 | -10.91938 | 16.13213 | 37001 ft | 488 kts | 177° |
| 2026-04-13 04:27 | -10.98694 | 16.13946 | 37003 ft | 488 kts | 177° |
| 2026-04-13 04:28 | -11.05454 | 16.14645 | 37003 ft | 488 kts | 178° |
| 2026-04-13 04:28 | -11.12214 | 16.15346 | 37001 ft | 488 kts | 177° |
| 2026-04-13 04:29 | -11.18971 | 16.16055 | 37005 ft | 488 kts | 177° |
| 2026-04-13 04:29 | -11.25733 | 16.16769 | 37005 ft | 488 kts | 177° |
| 2026-04-13 04:30 | -11.32491 | 16.17482 | 37003 ft | 488 kts | 177° |
| 2026-04-13 04:30 | -11.39251 | 16.18196 | 37004 ft | 488 kts | 177° |
| 2026-04-13 04:31 | -11.46007 | 16.18909 | 37002 ft | 488 kts | 177° |
| 2026-04-13 04:31 | -11.52764 | 16.19623 | 37002 ft | 488 kts | 177° |
| 2026-04-13 04:32 | -11.59524 | 16.20337 | 37008 ft | 488 kts | 178° |
| 2026-04-13 04:32 | -11.66282 | 16.21051 | 37001 ft | 488 kts | 178° |
| 2026-04-13 04:33 | -11.73043 | 16.21765 | 37008 ft | 488 kts | 178° |
| 2026-04-13 04:33 | -11.79760 | 16.22476 | 37014 ft | 488 kts | 178° |
| 2026-04-13 04:34 | -11.86517 | 16.23191 | 37007 ft | 488 kts | 178° |
| 2026-04-13 04:34 | -11.93279 | 16.23907 | 37016 ft | 488 kts | 178° |
| 2026-04-13 04:35 | -12.00042 | 16.24624 | 37012 ft | 489 kts | 178° |
| 2026-04-13 04:35 | -12.06813 | 16.25342 | 37010 ft | 489 kts | 178° |
| 2026-04-13 04:36 | -12.13582 | 16.26061 | 37012 ft | 489 kts | 178° |
| 2026-04-13 04:36 | -12.20350 | 16.26778 | 37013 ft | 489 kts | 178° |
| 2026-04-13 04:37 | -12.27117 | 16.27501 | 37015 ft | 489 kts | 178° |
| 2026-04-13 04:37 | -12.33889 | 16.28242 | 37023 ft | 490 kts | 178° |
| 2026-04-13 04:38 | -12.40669 | 16.28987 | 37020 ft | 490 kts | 178° |
| 2026-04-13 04:38 | -12.47457 | 16.29732 | 37020 ft | 490 kts | 178° |
| 2026-04-13 04:39 | -12.54243 | 16.30476 | 37012 ft | 490 kts | 178° |
| 2026-04-13 04:39 | -12.61026 | 16.31220 | 37022 ft | 490 kts | 178° |
| 2026-04-13 04:40 | -12.67766 | 16.31959 | 37013 ft | 490 kts | 179° |
| 2026-04-13 04:40 | -12.74541 | 16.32703 | 37023 ft | 490 kts | 179° |
| 2026-04-13 04:41 | -12.81318 | 16.33447 | 37026 ft | 490 kts | 179° |
| 2026-04-13 04:41 | -12.88094 | 16.34191 | 37018 ft | 490 kts | 179° |
| 2026-04-13 04:42 | -12.94868 | 16.34936 | 37016 ft | 490 kts | 179° |
| 2026-04-13 04:43 | -13.08439 | 16.36429 | 37024 ft | 491 kts | 179° |
| 2026-04-13 04:43 | -13.15225 | 16.37176 | 37026 ft | 490 kts | 179° |
| 2026-04-13 04:44 | -13.22009 | 16.37923 | 37022 ft | 490 kts | 179° |
| 2026-04-13 04:44 | -13.28794 | 16.38671 | 37021 ft | 490 kts | 179° |
| 2026-04-13 04:45 | -13.35581 | 16.39420 | 37021 ft | 490 kts | 179° |
| 2026-04-13 04:45 | -13.42353 | 16.40168 | 37029 ft | 489 kts | 179° |
| 2026-04-13 04:46 | -13.49117 | 16.40914 | 37023 ft | 489 kts | 179° |
| 2026-04-13 04:46 | -13.55887 | 16.41662 | 37014 ft | 489 kts | 179° |
| 2026-04-13 04:47 | -13.62656 | 16.42410 | 37027 ft | 489 kts | 179° |
| 2026-04-13 04:47 | -13.69421 | 16.43159 | 37015 ft | 489 kts | 179° |
| 2026-04-13 04:48 | -13.76185 | 16.43908 | 37015 ft | 489 kts | 179° |
| 2026-04-13 04:48 | -13.82949 | 16.44658 | 37015 ft | 489 kts | 179° |
| 2026-04-13 04:49 | -13.89708 | 16.45407 | 37017 ft | 489 kts | 179° |
| 2026-04-13 04:49 | -13.96468 | 16.46156 | 37017 ft | 488 kts | 179° |
| 2026-04-13 04:50 | -14.03228 | 16.46905 | 37021 ft | 489 kts | 179° |
| 2026-04-13 04:50 | -14.09950 | 16.47651 | 37018 ft | 489 kts | 179° |
| 2026-04-13 04:51 | -14.16718 | 16.48403 | 37019 ft | 490 kts | 179° |
| 2026-04-13 04:51 | -14.23495 | 16.49156 | 37023 ft | 490 kts | 179° |
| 2026-04-13 04:52 | -14.30266 | 16.49910 | 37022 ft | 489 kts | 179° |
| 2026-04-13 04:52 | -14.37036 | 16.50663 | 37027 ft | 489 kts | 180° |
| 2026-04-13 04:53 | -14.43813 | 16.51417 | 37021 ft | 490 kts | 180° |
| 2026-04-13 04:53 | -14.50596 | 16.52172 | 37020 ft | 490 kts | 180° |
| 2026-04-13 04:54 | -14.57377 | 16.52928 | 37020 ft | 490 kts | 180° |
| 2026-04-13 04:54 | -14.64154 | 16.53684 | 37018 ft | 490 kts | 180° |
| 2026-04-13 04:55 | -14.70936 | 16.54441 | 37018 ft | 490 kts | 180° |
| 2026-04-13 04:55 | -14.77719 | 16.55199 | 37018 ft | 490 kts | 180° |
| 2026-04-13 04:56 | -14.84500 | 16.55957 | 37018 ft | 490 kts | 180° |
| 2026-04-13 04:56 | -14.91284 | 16.56715 | 37015 ft | 490 kts | 180° |
| 2026-04-13 04:57 | -14.98065 | 16.57474 | 37014 ft | 490 kts | 180° |
| 2026-04-13 04:57 | -15.03702 | 16.58105 | 37014 ft | 490 kts | 180° |
| 2026-04-13 04:58 | -15.10482 | 16.58864 | 37009 ft | 490 kts | 180° |
| 2026-04-13 04:58 | -15.17267 | 16.59625 | 37008 ft | 491 kts | 180° |
| 2026-04-13 04:59 | -15.24053 | 16.60393 | 37007 ft | 491 kts | 180° |
| 2026-04-13 04:59 | -15.30840 | 16.61170 | 37004 ft | 491 kts | 180° |
| 2026-04-13 05:00 | -15.37625 | 16.61948 | 37016 ft | 491 kts | 180° |
| 2026-04-13 05:00 | -15.44423 | 16.62726 | 37005 ft | 492 kts | 180° |
| 2026-04-13 05:01 | -15.51226 | 16.63504 | 37005 ft | 492 kts | 180° |
| 2026-04-13 05:01 | -15.58029 | 16.64282 | 37002 ft | 492 kts | 180° |
| 2026-04-13 05:02 | -15.64783 | 16.65056 | 37003 ft | 492 kts | 180° |
| 2026-04-13 05:02 | -15.71585 | 16.65836 | 37006 ft | 492 kts | 181° |
| 2026-04-13 05:03 | -15.78397 | 16.66617 | 36998 ft | 493 kts | 180° |
| 2026-04-13 05:03 | -15.85215 | 16.67399 | 36998 ft | 493 kts | 180° |
| 2026-04-13 05:04 | -15.92034 | 16.68183 | 36999 ft | 493 kts | 180° |
| 2026-04-13 05:04 | -15.98853 | 16.68968 | 36998 ft | 493 kts | 180° |
| 2026-04-13 05:05 | -16.05673 | 16.69752 | 37004 ft | 493 kts | 181° |
| 2026-04-13 05:05 | -16.12501 | 16.70537 | 37000 ft | 494 kts | 181° |
| 2026-04-13 05:06 | -16.19332 | 16.71324 | 36998 ft | 494 kts | 181° |
| 2026-04-13 05:06 | -16.26158 | 16.72112 | 36999 ft | 494 kts | 181° |
| 2026-04-13 05:07 | -16.32940 | 16.72894 | 36998 ft | 493 kts | 181° |
| 2026-04-13 05:07 | -16.39764 | 16.73682 | 37000 ft | 494 kts | 181° |
| 2026-04-13 05:08 | -16.46645 | 16.74476 | 36999 ft | 494 kts | 181° |
| 2026-04-13 05:08 | -16.53483 | 16.75266 | 36998 ft | 495 kts | 181° |
| 2026-04-13 05:09 | -16.60323 | 16.76058 | 36998 ft | 495 kts | 181° |
| 2026-04-13 05:09 | -16.67122 | 16.76845 | 36999 ft | 495 kts | 181° |
| 2026-04-13 05:10 | -16.73964 | 16.77638 | 37004 ft | 495 kts | 181° |
| 2026-04-13 05:10 | -16.80812 | 16.78431 | 37005 ft | 495 kts | 181° |
| 2026-04-13 05:11 | -16.87666 | 16.79227 | 37005 ft | 495 kts | 181° |
| 2026-04-13 05:11 | -16.94519 | 16.80022 | 36999 ft | 495 kts | 181° |
| 2026-04-13 05:12 | -17.01368 | 16.80818 | 37000 ft | 496 kts | 181° |
| 2026-04-13 05:12 | -17.08224 | 16.81615 | 37003 ft | 495 kts | 181° |
| 2026-04-13 05:13 | -17.15075 | 16.82412 | 37003 ft | 495 kts | 181° |
| 2026-04-13 05:13 | -17.21927 | 16.83210 | 37006 ft | 495 kts | 181° |
| 2026-04-13 05:14 | -17.28783 | 16.84009 | 37002 ft | 495 kts | 181° |
| 2026-04-13 05:14 | -17.35631 | 16.84808 | 37007 ft | 495 kts | 181° |
| 2026-04-13 05:15 | -17.42486 | 16.85605 | 37008 ft | 495 kts | 181° |
| 2026-04-13 05:15 | -17.49335 | 16.86397 | 37006 ft | 495 kts | 181° |
| 2026-04-13 05:16 | -17.56138 | 16.87183 | 37010 ft | 495 kts | 181° |
| 2026-04-13 05:16 | -17.62988 | 16.87975 | 37010 ft | 495 kts | 181° |
| 2026-04-13 05:17 | -17.69842 | 16.88769 | 37029 ft | 495 kts | 181° |
| 2026-04-13 05:17 | -17.76687 | 16.89563 | 37012 ft | 495 kts | 180° |
| 2026-04-13 05:18 | -17.83526 | 16.90357 | 37012 ft | 494 kts | 180° |
| 2026-04-13 05:18 | -17.90365 | 16.91151 | 37009 ft | 494 kts | 180° |
| 2026-04-13 05:19 | -17.97203 | 16.91945 | 37018 ft | 494 kts | 180° |
| 2026-04-13 05:19 | -18.04044 | 16.92741 | 37016 ft | 495 kts | 180° |
| 2026-04-13 05:20 | -18.10887 | 16.93537 | 37014 ft | 495 kts | 180° |
| 2026-04-13 05:20 | -18.17728 | 16.94334 | 37013 ft | 495 kts | 180° |
| 2026-04-13 05:21 | -18.24565 | 16.95131 | 37012 ft | 494 kts | 180° |
| 2026-04-13 05:21 | -18.31406 | 16.95930 | 37015 ft | 494 kts | 180° |
| 2026-04-13 05:22 | -18.38243 | 16.96727 | 37017 ft | 494 kts | 180° |
| 2026-04-13 05:22 | -18.45072 | 16.97526 | 37016 ft | 493 kts | 180° |
| 2026-04-13 05:23 | -18.51897 | 16.98324 | 37026 ft | 493 kts | 180° |
| 2026-04-13 05:23 | -18.58716 | 16.99122 | 37025 ft | 493 kts | 180° |
| 2026-04-13 05:24 | -18.65540 | 16.99921 | 37022 ft | 493 kts | 180° |
| 2026-04-13 05:24 | -18.72355 | 17.00720 | 37023 ft | 493 kts | 179° |
| 2026-04-13 05:25 | -18.79162 | 17.01519 | 37023 ft | 492 kts | 179° |
| 2026-04-13 05:25 | -18.85967 | 17.02318 | 37023 ft | 492 kts | 179° |
| 2026-04-13 05:26 | -18.92728 | 17.03113 | 37026 ft | 492 kts | 179° |
| 2026-04-13 05:26 | -18.99532 | 17.03913 | 37039 ft | 492 kts | 179° |
| 2026-04-13 05:27 | -19.06330 | 17.04713 | 37029 ft | 491 kts | 179° |
| 2026-04-13 05:27 | -19.13123 | 17.05514 | 37034 ft | 491 kts | 179° |
| 2026-04-13 05:28 | -19.19912 | 17.06324 | 37035 ft | 491 kts | 179° |
| 2026-04-13 05:28 | -19.26709 | 17.07153 | 37043 ft | 491 kts | 179° |
| 2026-04-13 05:29 | -19.33506 | 17.07985 | 37048 ft | 491 kts | 178° |
| 2026-04-13 05:29 | -19.40285 | 17.08814 | 37049 ft | 490 kts | 178° |
| 2026-04-13 05:30 | -19.47016 | 17.09636 | 37056 ft | 491 kts | 178° |
| 2026-04-13 05:30 | -19.53803 | 17.10465 | 37056 ft | 491 kts | 178° |
| 2026-04-13 05:31 | -19.60583 | 17.11295 | 37053 ft | 490 kts | 178° |
| 2026-04-13 05:31 | -19.67358 | 17.12123 | 37065 ft | 490 kts | 178° |
| 2026-04-13 05:32 | -19.74122 | 17.12953 | 37061 ft | 489 kts | 178° |
| 2026-04-13 05:32 | -19.80836 | 17.13776 | 37064 ft | 489 kts | 178° |
| 2026-04-13 05:33 | -19.87594 | 17.14605 | 37069 ft | 489 kts | 178° |
| 2026-04-13 05:33 | -19.94350 | 17.15435 | 37075 ft | 489 kts | 178° |
| 2026-04-13 05:34 | -20.01111 | 17.16266 | 37072 ft | 489 kts | 178° |
| 2026-04-13 05:34 | -20.07861 | 17.17097 | 37070 ft | 488 kts | 178° |
| 2026-04-13 05:35 | -20.14610 | 17.17928 | 37076 ft | 488 kts | 178° |
| 2026-04-13 05:35 | -20.21357 | 17.18760 | 37067 ft | 488 kts | 178° |
| 2026-04-13 05:36 | -20.28109 | 17.19593 | 37082 ft | 488 kts | 177° |
| 2026-04-13 05:36 | -20.34854 | 17.20426 | 37074 ft | 488 kts | 177° |
| 2026-04-13 05:37 | -20.41592 | 17.21259 | 37075 ft | 487 kts | 177° |
| 2026-04-13 05:37 | -20.48329 | 17.22092 | 37075 ft | 487 kts | 177° |
| 2026-04-13 05:38 | -20.55066 | 17.22927 | 37075 ft | 487 kts | 177° |
| 2026-04-13 05:38 | -20.61803 | 17.23761 | 37069 ft | 487 kts | 176° |
| 2026-04-13 05:39 | -20.68529 | 17.24595 | 37070 ft | 486 kts | 176° |
| 2026-04-13 05:39 | -20.75252 | 17.25430 | 37079 ft | 486 kts | 176° |
| 2026-04-13 05:40 | -20.81972 | 17.26265 | 37064 ft | 486 kts | 176° |
| 2026-04-13 05:40 | -20.85333 | 17.26682 | 36853 ft | 486 kts | 176° |
| 2026-04-13 05:40 | -20.88695 | 17.27099 | 36607 ft | 487 kts | 176° |
| 2026-04-13 05:41 | -20.92061 | 17.27615 | 36220 ft | 493 kts | 172° |
| 2026-04-13 05:41 | -20.95416 | 17.28386 | 35408 ft | 493 kts | 169° |
| 2026-04-13 05:41 | -20.98762 | 17.29237 | 34341 ft | 494 kts | 169° |
| 2026-04-13 05:41 | -21.02107 | 17.30112 | 33164 ft | 495 kts | 168° |
| 2026-04-13 05:42 | -21.05431 | 17.30987 | 32296 ft | 488 kts | 168° |
| 2026-04-13 05:42 | -21.08701 | 17.31849 | 31489 ft | 481 kts | 168° |
| 2026-04-13 05:42 | -21.11949 | 17.32705 | 30659 ft | 482 kts | 168° |
| 2026-04-13 05:43 | -21.18391 | 17.34403 | 29407 ft | 477 kts | 168° |
| 2026-04-13 05:43 | -21.21594 | 17.35248 | 28815 ft | 472 kts | 168° |
| 2026-04-13 05:43 | -21.24772 | 17.36087 | 28218 ft | 468 kts | 167° |
| 2026-04-13 05:43 | -21.27918 | 17.36917 | 27631 ft | 464 kts | 167° |
| 2026-04-13 05:44 | -21.31037 | 17.37741 | 27047 ft | 460 kts | 167° |
| 2026-04-13 05:44 | -21.34136 | 17.38560 | 26459 ft | 457 kts | 167° |
| 2026-04-13 05:44 | -21.37207 | 17.39372 | 25870 ft | 453 kts | 167° |
| 2026-04-13 05:44 | -21.40259 | 17.40179 | 25291 ft | 450 kts | 167° |
| 2026-04-13 05:45 | -21.43293 | 17.40982 | 24706 ft | 448 kts | 167° |
| 2026-04-13 05:45 | -21.46307 | 17.41780 | 24116 ft | 445 kts | 167° |
| 2026-04-13 05:45 | -21.49305 | 17.42573 | 23494 ft | 442 kts | 167° |
| 2026-04-13 05:45 | -21.52282 | 17.43362 | 22841 ft | 439 kts | 167° |
| 2026-04-13 05:46 | -21.55224 | 17.44142 | 22245 ft | 433 kts | 167° |
| 2026-04-13 05:46 | -21.58133 | 17.44913 | 21659 ft | 428 kts | 167° |
| 2026-04-13 05:46 | -21.61005 | 17.45675 | 21076 ft | 423 kts | 166° |
| 2026-04-13 05:46 | -21.62933 | 17.46187 | 20695 ft | 420 kts | 166° |
| 2026-04-13 05:47 | -21.65751 | 17.46935 | 20117 ft | 415 kts | 166° |
| 2026-04-13 05:47 | -21.68538 | 17.47675 | 19535 ft | 410 kts | 166° |
| 2026-04-13 05:47 | -21.71295 | 17.48407 | 18994 ft | 406 kts | 166° |
| 2026-04-13 05:47 | -21.74021 | 17.49132 | 18431 ft | 402 kts | 166° |
| 2026-04-13 05:48 | -21.76718 | 17.49849 | 17804 ft | 397 kts | 166° |
| 2026-04-13 05:48 | -21.79385 | 17.50559 | 17262 ft | 392 kts | 166° |
| 2026-04-13 05:48 | -21.82014 | 17.51259 | 16724 ft | 388 kts | 166° |
| 2026-04-13 05:48 | -21.84587 | 17.51944 | 16198 ft | 384 kts | 166° |
| 2026-04-13 05:49 | -21.87206 | 17.52642 | 15660 ft | 381 kts | 166° |
| 2026-04-13 05:49 | -21.89736 | 17.53316 | 15126 ft | 379 kts | 166° |
| 2026-04-13 05:49 | -21.92288 | 17.53996 | 14605 ft | 377 kts | 167° |
| 2026-04-13 05:49 | -21.94827 | 17.54673 | 14077 ft | 375 kts | 167° |
| 2026-04-13 05:50 | -21.97351 | 17.55345 | 13503 ft | 373 kts | 167° |
| 2026-04-13 05:50 | -21.99864 | 17.56015 | 12968 ft | 370 kts | 166° |
| 2026-04-13 05:50 | -22.02351 | 17.56679 | 12440 ft | 366 kts | 166° |
| 2026-04-13 05:50 | -22.04814 | 17.57336 | 11952 ft | 363 kts | 166° |
| 2026-04-13 05:51 | -22.07253 | 17.57987 | 11439 ft | 360 kts | 166° |
| 2026-04-13 05:51 | -22.09674 | 17.58634 | 10930 ft | 357 kts | 166° |
| 2026-04-13 05:51 | -22.12059 | 17.59271 | 10643 ft | 347 kts | 166° |
| 2026-04-13 05:51 | -22.14341 | 17.59881 | 10563 ft | 329 kts | 166° |
| 2026-04-13 05:52 | -22.16517 | 17.60463 | 10428 ft | 316 kts | 166° |
| 2026-04-13 05:52 | -22.18627 | 17.61028 | 10170 ft | 309 kts | 166° |
| 2026-04-13 05:52 | -22.20682 | 17.61578 | 9968 ft | 300 kts | 166° |
| 2026-04-13 05:52 | -22.22678 | 17.62112 | 9775 ft | 292 kts | 166° |
| 2026-04-13 05:53 | -22.24652 | 17.62641 | 9418 ft | 292 kts | 166° |
| 2026-04-13 05:53 | -22.26625 | 17.63169 | 9085 ft | 292 kts | 166° |
| 2026-04-13 05:53 | -22.28588 | 17.63695 | 8762 ft | 290 kts | 166° |
| 2026-04-13 05:53 | -22.30542 | 17.64219 | 8424 ft | 289 kts | 166° |
| 2026-04-13 05:54 | -22.32488 | 17.64741 | 8109 ft | 288 kts | 166° |
| 2026-04-13 05:54 | -22.34442 | 17.65265 | 7952 ft | 288 kts | 166° |
| 2026-04-13 05:54 | -22.36340 | 17.65746 | 7929 ft | 272 kts | 171° |
| 2026-04-13 05:54 | -22.38163 | 17.65684 | 7935 ft | 256 kts | 198° |
| 2026-04-13 05:55 | -22.39633 | 17.64776 | 7958 ft | 235 kts | 225° |
| 2026-04-13 05:55 | -22.40556 | 17.63403 | 7955 ft | 219 kts | 245° |
| 2026-04-13 05:55 | -22.41168 | 17.61966 | 7967 ft | 202 kts | 248° |
| 2026-04-13 05:55 | -22.41755 | 17.60632 | 7889 ft | 194 kts | 246° |
| 2026-04-13 05:56 | -22.42360 | 17.59337 | 7624 ft | 193 kts | 245° |
| 2026-04-13 05:56 | -22.42953 | 17.58052 | 7368 ft | 188 kts | 246° |
| 2026-04-13 05:56 | -22.43519 | 17.56817 | 7134 ft | 179 kts | 246° |
| 2026-04-13 05:56 | -22.44051 | 17.55661 | 6944 ft | 165 kts | 247° |
| 2026-04-13 05:57 | -22.44544 | 17.54587 | 6721 ft | 155 kts | 247° |
| 2026-04-13 05:57 | -22.45020 | 17.53558 | 6491 ft | 153 kts | 246° |
| 2026-04-13 05:57 | -22.45496 | 17.52536 | 6284 ft | 151 kts | 246° |
| 2026-04-13 05:57 | -22.45965 | 17.51524 | 6091 ft | 151 kts | 244° |
| 2026-04-13 05:58 | -22.46423 | 17.50505 | 5862 ft | 150 kts | 245° |
| 2026-04-13 05:58 | -22.46886 | 17.49508 | 5656 ft | 147 kts | 244° |
| 2026-04-13 05:58 | -22.47336 | 17.48533 | 5543 ft | 141 kts | 244° |
| 2026-04-13 05:58 | -22.47719 | 17.47687 | 5557 ft | 109 kts | 243° |
| 2026-04-13 05:59 | -22.48006 | 17.47056 | 5568 ft | 82 kts | 243° |
| 2026-04-13 05:59 | -22.48209 | 17.46615 | 5565 ft | 41 kts | 245° |
| 2026-04-13 05:59 | -22.48314 | 17.46388 | 5568 ft | 25 kts | 243° |
| 2026-04-13 05:59 | -22.48389 | 17.46291 | 5570 ft | 11 kts | 182° |
| 2026-04-13 06:00 | -22.48425 | 17.46303 | 5571 ft | 0 kts | 154° |
| 2026-04-13 06:00 | -22.48428 | 17.46305 | 5571 ft | 1 kts | 155° |
| 2026-04-13 06:00 | -22.48434 | 17.46305 | 5570 ft | 2 kts | 175° |
| 2026-04-13 06:00 | -22.48453 | 17.46296 | 5571 ft | 5 kts | 207° |
| 2026-04-13 06:01 | -22.48496 | 17.46278 | 5572 ft | 8 kts | 186° |
| 2026-04-13 06:01 | -22.48565 | 17.46300 | 5570 ft | 11 kts | 155° |
| 2026-04-13 06:01 | -22.48591 | 17.46322 | 5569 ft | 4 kts | 115° |
| 2026-04-13 06:01 | -22.48582 | 17.46335 | 5570 ft | 2 kts | 35° |
| 2026-04-13 06:02 | -22.48573 | 17.46331 | 5569 ft | 1 kts | 341° |
| 2026-04-13 06:02 | -22.48564 | 17.46323 | 5569 ft | 2 kts | 324° |
| 2026-04-13 06:02 | -22.48561 | 17.46321 | 5571 ft | 0 kts | 327° |
| 2026-04-13 06:03 | -22.48554 | 17.46325 | 5572 ft | 0 kts | 296° |